<?xml version="1.0" encoding="UTF-8" standalone="no" ?>
<gpx xmlns="http://www.topografix.com/GPX/1/1" xmlns:xsi="http://www.w3.org/2001/XMLSchema-instance" xsi:schemaLocation="http://www.topografix.com/GPX/1/1 http://www.topografix.com/GPX/1/1/gpx.xsd" version="1.1" creator="VisuGPX - https://www.visugpx.com">
  <metadata>
    <name>Pic de la cristalere</name>
    <desc><![CDATA[A faire lorsque l'enneigement est bas  ]]></desc>
  </metadata>
  <trk>
    <name><![CDATA[Pic de la cristalere]]></name>
    <extensions>
      <line xmlns="http://www.topografix.com/GPX/gpx_style/0/2">
        <width>4</width>
      </line>
    </extensions>
    <trkseg>
      <trkpt lat="42.877" lon="-0.5625">
        <ele>862.1</ele>
        <time>2021-01-08T08:47:34.000Z</time>
      </trkpt>
      <trkpt lat="42.87699" lon="-0.56249">
        <ele>862.1</ele>
        <time>2021-01-08T08:47:35.000Z</time>
      </trkpt>
      <trkpt lat="42.877" lon="-0.56264">
        <ele>862.8</ele>
        <time>2021-01-08T08:53:38.000Z</time>
      </trkpt>
      <trkpt lat="42.87709" lon="-0.56266">
        <ele>865</ele>
        <time>2021-01-08T08:53:55.000Z</time>
      </trkpt>
      <trkpt lat="42.87714" lon="-0.56277">
        <ele>868.3</ele>
        <time>2021-01-08T08:54:12.000Z</time>
      </trkpt>
      <trkpt lat="42.87716" lon="-0.56289">
        <ele>870.7</ele>
        <time>2021-01-08T08:54:25.000Z</time>
      </trkpt>
      <trkpt lat="42.87713" lon="-0.56301">
        <ele>873.2</ele>
        <time>2021-01-08T08:54:40.000Z</time>
      </trkpt>
      <trkpt lat="42.87711" lon="-0.56313">
        <ele>877.1</ele>
        <time>2021-01-08T08:55:01.000Z</time>
      </trkpt>
      <trkpt lat="42.87705" lon="-0.56323">
        <ele>879.7</ele>
        <time>2021-01-08T08:55:20.000Z</time>
      </trkpt>
      <trkpt lat="42.87714" lon="-0.5633">
        <ele>882</ele>
        <time>2021-01-08T08:55:31.000Z</time>
      </trkpt>
      <trkpt lat="42.87706" lon="-0.56338">
        <ele>887.6</ele>
        <time>2021-01-08T08:56:03.000Z</time>
      </trkpt>
      <trkpt lat="42.87699" lon="-0.56346">
        <ele>888.7</ele>
        <time>2021-01-08T08:56:13.000Z</time>
      </trkpt>
      <trkpt lat="42.87704" lon="-0.56357">
        <ele>889.8</ele>
        <time>2021-01-08T08:56:27.000Z</time>
      </trkpt>
      <trkpt lat="42.87708" lon="-0.56363">
        <ele>890.6</ele>
        <time>2021-01-08T08:57:45.000Z</time>
      </trkpt>
      <trkpt lat="42.87698" lon="-0.56362">
        <ele>892.7</ele>
        <time>2021-01-08T08:58:03.000Z</time>
      </trkpt>
      <trkpt lat="42.87689" lon="-0.56367">
        <ele>898.9</ele>
        <time>2021-01-08T08:58:41.000Z</time>
      </trkpt>
      <trkpt lat="42.87679" lon="-0.56366">
        <ele>899.7</ele>
        <time>2021-01-08T08:58:45.000Z</time>
      </trkpt>
      <trkpt lat="42.8767" lon="-0.56371">
        <ele>902.8</ele>
        <time>2021-01-08T08:58:57.000Z</time>
      </trkpt>
      <trkpt lat="42.87661" lon="-0.56368">
        <ele>910.1</ele>
        <time>2021-01-08T08:59:34.000Z</time>
      </trkpt>
      <trkpt lat="42.87652" lon="-0.56372">
        <ele>913.9</ele>
        <time>2021-01-08T08:59:51.000Z</time>
      </trkpt>
      <trkpt lat="42.87643" lon="-0.56373">
        <ele>919.8</ele>
        <time>2021-01-08T09:00:13.000Z</time>
      </trkpt>
      <trkpt lat="42.87634" lon="-0.56376">
        <ele>926</ele>
        <time>2021-01-08T09:01:14.000Z</time>
      </trkpt>
      <trkpt lat="42.87624" lon="-0.56372">
        <ele>928.1</ele>
        <time>2021-01-08T09:01:29.000Z</time>
      </trkpt>
      <trkpt lat="42.87614" lon="-0.5637">
        <ele>928.4</ele>
        <time>2021-01-08T09:01:34.000Z</time>
      </trkpt>
      <trkpt lat="42.87603" lon="-0.56371">
        <ele>935</ele>
        <time>2021-01-08T09:02:28.000Z</time>
      </trkpt>
      <trkpt lat="42.87598" lon="-0.56361">
        <ele>937.1</ele>
        <time>2021-01-08T09:02:48.000Z</time>
      </trkpt>
      <trkpt lat="42.8759" lon="-0.56353">
        <ele>937.8</ele>
        <time>2021-01-08T09:03:10.000Z</time>
      </trkpt>
      <trkpt lat="42.87577" lon="-0.56344">
        <ele>939</ele>
        <time>2021-01-08T09:03:21.000Z</time>
      </trkpt>
      <trkpt lat="42.87567" lon="-0.56339">
        <ele>940.7</ele>
        <time>2021-01-08T09:03:26.000Z</time>
      </trkpt>
      <trkpt lat="42.87558" lon="-0.56337">
        <ele>942.2</ele>
        <time>2021-01-08T09:03:37.000Z</time>
      </trkpt>
      <trkpt lat="42.87548" lon="-0.56342">
        <ele>944.8</ele>
        <time>2021-01-08T09:03:54.000Z</time>
      </trkpt>
      <trkpt lat="42.87548" lon="-0.56355">
        <ele>945.6</ele>
        <time>2021-01-08T09:04:11.000Z</time>
      </trkpt>
      <trkpt lat="42.87551" lon="-0.56369">
        <ele>947</ele>
        <time>2021-01-08T09:05:16.000Z</time>
      </trkpt>
      <trkpt lat="42.87552" lon="-0.56381">
        <ele>949.9</ele>
        <time>2021-01-08T09:05:29.000Z</time>
      </trkpt>
      <trkpt lat="42.87539" lon="-0.56381">
        <ele>950.8</ele>
        <time>2021-01-08T09:05:44.000Z</time>
      </trkpt>
      <trkpt lat="42.87542" lon="-0.56394">
        <ele>954.1</ele>
        <time>2021-01-08T09:06:07.000Z</time>
      </trkpt>
      <trkpt lat="42.87544" lon="-0.56407">
        <ele>955</ele>
        <time>2021-01-08T09:06:16.000Z</time>
      </trkpt>
      <trkpt lat="42.87537" lon="-0.56398">
        <ele>959.5</ele>
        <time>2021-01-08T09:06:42.000Z</time>
      </trkpt>
      <trkpt lat="42.8754" lon="-0.5641">
        <ele>962.7</ele>
        <time>2021-01-08T09:07:08.000Z</time>
      </trkpt>
      <trkpt lat="42.87545" lon="-0.56427">
        <ele>966</ele>
        <time>2021-01-08T09:07:32.000Z</time>
      </trkpt>
      <trkpt lat="42.87553" lon="-0.56439">
        <ele>966</ele>
        <time>2021-01-08T09:07:36.000Z</time>
      </trkpt>
      <trkpt lat="42.87542" lon="-0.56444">
        <ele>967</ele>
        <time>2021-01-08T09:07:44.000Z</time>
      </trkpt>
      <trkpt lat="42.87531" lon="-0.56439">
        <ele>968</ele>
        <time>2021-01-08T09:07:49.000Z</time>
      </trkpt>
      <trkpt lat="42.87521" lon="-0.56433">
        <ele>969</ele>
        <time>2021-01-08T09:07:54.000Z</time>
      </trkpt>
      <trkpt lat="42.87511" lon="-0.56424">
        <ele>970</ele>
        <time>2021-01-08T09:08:02.000Z</time>
      </trkpt>
      <trkpt lat="42.87504" lon="-0.56417">
        <ele>972</ele>
        <time>2021-01-08T09:08:10.000Z</time>
      </trkpt>
      <trkpt lat="42.87496" lon="-0.56411">
        <ele>973.9</ele>
        <time>2021-01-08T09:08:23.000Z</time>
      </trkpt>
      <trkpt lat="42.87491" lon="-0.56422">
        <ele>977.4</ele>
        <time>2021-01-08T09:08:40.000Z</time>
      </trkpt>
      <trkpt lat="42.87479" lon="-0.56424">
        <ele>981</ele>
        <time>2021-01-08T09:08:59.000Z</time>
      </trkpt>
      <trkpt lat="42.87473" lon="-0.56433">
        <ele>986</ele>
        <time>2021-01-08T09:09:44.000Z</time>
      </trkpt>
      <trkpt lat="42.87476" lon="-0.56445">
        <ele>988.8</ele>
        <time>2021-01-08T09:10:13.000Z</time>
      </trkpt>
      <trkpt lat="42.87485" lon="-0.56451">
        <ele>987.7</ele>
        <time>2021-01-08T09:12:39.000Z</time>
      </trkpt>
      <trkpt lat="42.87477" lon="-0.56443">
        <ele>987</ele>
        <time>2021-01-08T09:12:59.000Z</time>
      </trkpt>
      <trkpt lat="42.87485" lon="-0.5645">
        <ele>987.6</ele>
        <time>2021-01-08T09:13:16.000Z</time>
      </trkpt>
      <trkpt lat="42.87494" lon="-0.56462">
        <ele>987</ele>
        <time>2021-01-08T09:13:27.000Z</time>
      </trkpt>
      <trkpt lat="42.87497" lon="-0.56474">
        <ele>989.3</ele>
        <time>2021-01-08T09:16:22.000Z</time>
      </trkpt>
      <trkpt lat="42.87504" lon="-0.56483">
        <ele>990.8</ele>
        <time>2021-01-08T09:16:30.000Z</time>
      </trkpt>
      <trkpt lat="42.87503" lon="-0.56498">
        <ele>994</ele>
        <time>2021-01-08T09:16:48.000Z</time>
      </trkpt>
      <trkpt lat="42.87493" lon="-0.56499">
        <ele>997</ele>
        <time>2021-01-08T09:17:02.000Z</time>
      </trkpt>
      <trkpt lat="42.8748" lon="-0.56494">
        <ele>998</ele>
        <time>2021-01-08T09:17:11.000Z</time>
      </trkpt>
      <trkpt lat="42.87471" lon="-0.56483">
        <ele>999.9</ele>
        <time>2021-01-08T09:17:19.000Z</time>
      </trkpt>
      <trkpt lat="42.87475" lon="-0.56496">
        <ele>1001</ele>
        <time>2021-01-08T09:17:30.000Z</time>
      </trkpt>
      <trkpt lat="42.87483" lon="-0.56502">
        <ele>1001.4</ele>
        <time>2021-01-08T09:17:33.000Z</time>
      </trkpt>
      <trkpt lat="42.87487" lon="-0.56513">
        <ele>1003</ele>
        <time>2021-01-08T09:17:41.000Z</time>
      </trkpt>
      <trkpt lat="42.87492" lon="-0.56524">
        <ele>1005</ele>
        <time>2021-01-08T09:17:58.000Z</time>
      </trkpt>
      <trkpt lat="42.87491" lon="-0.56538">
        <ele>1009</ele>
        <time>2021-01-08T09:18:36.000Z</time>
      </trkpt>
      <trkpt lat="42.87489" lon="-0.56551">
        <ele>1011.1</ele>
        <time>2021-01-08T09:18:47.000Z</time>
      </trkpt>
      <trkpt lat="42.8748" lon="-0.56544">
        <ele>1011.9</ele>
        <time>2021-01-08T09:18:51.000Z</time>
      </trkpt>
      <trkpt lat="42.87476" lon="-0.56533">
        <ele>1016</ele>
        <time>2021-01-08T09:19:24.000Z</time>
      </trkpt>
      <trkpt lat="42.87481" lon="-0.56543">
        <ele>1018</ele>
        <time>2021-01-08T09:19:39.000Z</time>
      </trkpt>
      <trkpt lat="42.87483" lon="-0.56556">
        <ele>1021.3</ele>
        <time>2021-01-08T09:19:48.000Z</time>
      </trkpt>
      <trkpt lat="42.8748" lon="-0.56567">
        <ele>1023.2</ele>
        <time>2021-01-08T09:19:58.000Z</time>
      </trkpt>
      <trkpt lat="42.87465" lon="-0.56569">
        <ele>1027</ele>
        <time>2021-01-08T09:20:23.000Z</time>
      </trkpt>
      <trkpt lat="42.87472" lon="-0.56577">
        <ele>1029</ele>
        <time>2021-01-08T09:20:36.000Z</time>
      </trkpt>
      <trkpt lat="42.87459" lon="-0.56581">
        <ele>1033</ele>
        <time>2021-01-08T09:21:14.000Z</time>
      </trkpt>
      <trkpt lat="42.87437" lon="-0.56571">
        <ele>1035</ele>
        <time>2021-01-08T09:21:24.000Z</time>
      </trkpt>
      <trkpt lat="42.87418" lon="-0.56558">
        <ele>1035.6</ele>
        <time>2021-01-08T09:21:27.000Z</time>
      </trkpt>
      <trkpt lat="42.87439" lon="-0.56576">
        <ele>1036</ele>
        <time>2021-01-08T09:21:35.000Z</time>
      </trkpt>
      <trkpt lat="42.87449" lon="-0.56584">
        <ele>1037.3</ele>
        <time>2021-01-08T09:21:46.000Z</time>
      </trkpt>
      <trkpt lat="42.87456" lon="-0.56594">
        <ele>1037.7</ele>
        <time>2021-01-08T09:21:55.000Z</time>
      </trkpt>
      <trkpt lat="42.87443" lon="-0.56592">
        <ele>1041.8</ele>
        <time>2021-01-08T09:22:17.000Z</time>
      </trkpt>
      <trkpt lat="42.87434" lon="-0.56589">
        <ele>1043</ele>
        <time>2021-01-08T09:22:24.000Z</time>
      </trkpt>
      <trkpt lat="42.87424" lon="-0.56589">
        <ele>1045</ele>
        <time>2021-01-08T09:22:40.000Z</time>
      </trkpt>
      <trkpt lat="42.87434" lon="-0.56606">
        <ele>1046</ele>
        <time>2021-01-08T09:22:53.000Z</time>
      </trkpt>
      <trkpt lat="42.8744" lon="-0.5662">
        <ele>1048</ele>
        <time>2021-01-08T09:23:08.000Z</time>
      </trkpt>
      <trkpt lat="42.87447" lon="-0.56629">
        <ele>1050.7</ele>
        <time>2021-01-08T09:23:19.000Z</time>
      </trkpt>
      <trkpt lat="42.87436" lon="-0.56624">
        <ele>1054</ele>
        <time>2021-01-08T09:23:44.000Z</time>
      </trkpt>
      <trkpt lat="42.87429" lon="-0.56633">
        <ele>1056.1</ele>
        <time>2021-01-08T09:24:02.000Z</time>
      </trkpt>
      <trkpt lat="42.87417" lon="-0.56634">
        <ele>1061</ele>
        <time>2021-01-08T09:24:40.000Z</time>
      </trkpt>
      <trkpt lat="42.87427" lon="-0.56639">
        <ele>1062</ele>
        <time>2021-01-08T09:24:51.000Z</time>
      </trkpt>
      <trkpt lat="42.87427" lon="-0.56655">
        <ele>1062</ele>
        <time>2021-01-08T09:25:14.000Z</time>
      </trkpt>
      <trkpt lat="42.87437" lon="-0.5666">
        <ele>1066.2</ele>
        <time>2021-01-08T09:25:39.000Z</time>
      </trkpt>
      <trkpt lat="42.87415" lon="-0.56672">
        <ele>1069</ele>
        <time>2021-01-08T09:26:03.000Z</time>
      </trkpt>
      <trkpt lat="42.87421" lon="-0.56682">
        <ele>1073.5</ele>
        <time>2021-01-08T09:26:37.000Z</time>
      </trkpt>
      <trkpt lat="42.87423" lon="-0.56694">
        <ele>1075.6</ele>
        <time>2021-01-08T09:26:49.000Z</time>
      </trkpt>
      <trkpt lat="42.87426" lon="-0.56706">
        <ele>1078.1</ele>
        <time>2021-01-08T09:27:06.000Z</time>
      </trkpt>
      <trkpt lat="42.87423" lon="-0.56718">
        <ele>1081.3</ele>
        <time>2021-01-08T09:27:23.000Z</time>
      </trkpt>
      <trkpt lat="42.87423" lon="-0.56704">
        <ele>1085</ele>
        <time>2021-01-08T09:27:53.000Z</time>
      </trkpt>
      <trkpt lat="42.87415" lon="-0.56698">
        <ele>1087.9</ele>
        <time>2021-01-08T09:28:05.000Z</time>
      </trkpt>
      <trkpt lat="42.87406" lon="-0.5669">
        <ele>1089.8</ele>
        <time>2021-01-08T09:28:20.000Z</time>
      </trkpt>
      <trkpt lat="42.87397" lon="-0.56686">
        <ele>1090.2</ele>
        <time>2021-01-08T09:28:24.000Z</time>
      </trkpt>
      <trkpt lat="42.87398" lon="-0.56699">
        <ele>1091.3</ele>
        <time>2021-01-08T09:28:36.000Z</time>
      </trkpt>
      <trkpt lat="42.87403" lon="-0.56711">
        <ele>1093.7</ele>
        <time>2021-01-08T09:28:53.000Z</time>
      </trkpt>
      <trkpt lat="42.87409" lon="-0.5672">
        <ele>1095.4</ele>
        <time>2021-01-08T09:29:17.000Z</time>
      </trkpt>
      <trkpt lat="42.87401" lon="-0.56713">
        <ele>1096.5</ele>
        <time>2021-01-08T09:29:29.000Z</time>
      </trkpt>
      <trkpt lat="42.87392" lon="-0.5671">
        <ele>1097.6</ele>
        <time>2021-01-08T09:29:42.000Z</time>
      </trkpt>
      <trkpt lat="42.87391" lon="-0.56724">
        <ele>1099.9</ele>
        <time>2021-01-08T09:29:58.000Z</time>
      </trkpt>
      <trkpt lat="42.87398" lon="-0.56734">
        <ele>1101.1</ele>
        <time>2021-01-08T09:30:08.000Z</time>
      </trkpt>
      <trkpt lat="42.87388" lon="-0.56721">
        <ele>1103.4</ele>
        <time>2021-01-08T09:30:31.000Z</time>
      </trkpt>
      <trkpt lat="42.87378" lon="-0.56714">
        <ele>1104.6</ele>
        <time>2021-01-08T09:30:42.000Z</time>
      </trkpt>
      <trkpt lat="42.87371" lon="-0.56704">
        <ele>1105</ele>
        <time>2021-01-08T09:30:56.000Z</time>
      </trkpt>
      <trkpt lat="42.87369" lon="-0.56692">
        <ele>1107</ele>
        <time>2021-01-08T09:31:25.000Z</time>
      </trkpt>
      <trkpt lat="42.87359" lon="-0.56691">
        <ele>1108</ele>
        <time>2021-01-08T09:31:33.000Z</time>
      </trkpt>
      <trkpt lat="42.87337" lon="-0.56663">
        <ele>1114.4</ele>
        <time>2021-01-08T09:32:42.000Z</time>
      </trkpt>
      <trkpt lat="42.87336" lon="-0.5666">
        <ele>1117.5</ele>
        <time>2021-01-08T09:34:06.000Z</time>
      </trkpt>
      <trkpt lat="42.87344" lon="-0.56653">
        <ele>1118.1</ele>
        <time>2021-01-08T09:34:33.000Z</time>
      </trkpt>
      <trkpt lat="42.87335" lon="-0.5665">
        <ele>1124.2</ele>
        <time>2021-01-08T09:35:57.000Z</time>
      </trkpt>
      <trkpt lat="42.87326" lon="-0.5664">
        <ele>1125.5</ele>
        <time>2021-01-08T09:36:18.000Z</time>
      </trkpt>
      <trkpt lat="42.8732" lon="-0.56626">
        <ele>1125</ele>
        <time>2021-01-08T09:36:45.000Z</time>
      </trkpt>
      <trkpt lat="42.87318" lon="-0.56612">
        <ele>1125</ele>
        <time>2021-01-08T09:36:53.000Z</time>
      </trkpt>
      <trkpt lat="42.8731" lon="-0.566">
        <ele>1125</ele>
        <time>2021-01-08T09:37:04.000Z</time>
      </trkpt>
      <trkpt lat="42.87314" lon="-0.56588">
        <ele>1125.6</ele>
        <time>2021-01-08T09:37:15.000Z</time>
      </trkpt>
      <trkpt lat="42.87322" lon="-0.56578">
        <ele>1125.7</ele>
        <time>2021-01-08T09:37:27.000Z</time>
      </trkpt>
      <trkpt lat="42.87314" lon="-0.56565">
        <ele>1125</ele>
        <time>2021-01-08T09:37:37.000Z</time>
      </trkpt>
      <trkpt lat="42.87312" lon="-0.56563">
        <ele>1128</ele>
        <time>2021-01-08T09:38:25.000Z</time>
      </trkpt>
      <trkpt lat="42.87302" lon="-0.56574">
        <ele>1128</ele>
        <time>2021-01-08T09:38:41.000Z</time>
      </trkpt>
      <trkpt lat="42.87291" lon="-0.56583">
        <ele>1128</ele>
        <time>2021-01-08T09:38:50.000Z</time>
      </trkpt>
      <trkpt lat="42.87294" lon="-0.56569">
        <ele>1142</ele>
        <time>2021-01-08T09:40:52.000Z</time>
      </trkpt>
      <trkpt lat="42.87287" lon="-0.56559">
        <ele>1145</ele>
        <time>2021-01-08T09:41:17.000Z</time>
      </trkpt>
      <trkpt lat="42.87277" lon="-0.56562">
        <ele>1146</ele>
        <time>2021-01-08T09:41:33.000Z</time>
      </trkpt>
      <trkpt lat="42.87243" lon="-0.5656">
        <ele>1148</ele>
        <time>2021-01-08T09:41:53.000Z</time>
      </trkpt>
      <trkpt lat="42.87257" lon="-0.56572">
        <ele>1149</ele>
        <time>2021-01-08T09:42:14.000Z</time>
      </trkpt>
      <trkpt lat="42.87265" lon="-0.56579">
        <ele>1149</ele>
        <time>2021-01-08T09:42:19.000Z</time>
      </trkpt>
      <trkpt lat="42.87267" lon="-0.56592">
        <ele>1149</ele>
        <time>2021-01-08T09:42:31.000Z</time>
      </trkpt>
      <trkpt lat="42.87256" lon="-0.56607">
        <ele>1151.1</ele>
        <time>2021-01-08T09:42:57.000Z</time>
      </trkpt>
      <trkpt lat="42.8727" lon="-0.56616">
        <ele>1154</ele>
        <time>2021-01-08T09:43:23.000Z</time>
      </trkpt>
      <trkpt lat="42.87278" lon="-0.56624">
        <ele>1154</ele>
        <time>2021-01-08T09:43:35.000Z</time>
      </trkpt>
      <trkpt lat="42.8727" lon="-0.5664">
        <ele>1159</ele>
        <time>2021-01-08T09:44:03.000Z</time>
      </trkpt>
      <trkpt lat="42.87268" lon="-0.56653">
        <ele>1162</ele>
        <time>2021-01-08T09:44:19.000Z</time>
      </trkpt>
      <trkpt lat="42.8727" lon="-0.56645">
        <ele>1166</ele>
        <time>2021-01-08T09:45:15.000Z</time>
      </trkpt>
      <trkpt lat="42.8726" lon="-0.56637">
        <ele>1168</ele>
        <time>2021-01-08T09:45:27.000Z</time>
      </trkpt>
      <trkpt lat="42.87251" lon="-0.56573">
        <ele>1175</ele>
        <time>2021-01-08T09:46:34.000Z</time>
      </trkpt>
      <trkpt lat="42.87237" lon="-0.56569">
        <ele>1175</ele>
        <time>2021-01-08T09:46:38.000Z</time>
      </trkpt>
      <trkpt lat="42.8723" lon="-0.5656">
        <ele>1176</ele>
        <time>2021-01-08T09:46:46.000Z</time>
      </trkpt>
      <trkpt lat="42.87237" lon="-0.5655">
        <ele>1177</ele>
        <time>2021-01-08T09:47:12.000Z</time>
      </trkpt>
      <trkpt lat="42.87234" lon="-0.56534">
        <ele>1177</ele>
        <time>2021-01-08T09:48:20.000Z</time>
      </trkpt>
      <trkpt lat="42.87224" lon="-0.56524">
        <ele>1179</ele>
        <time>2021-01-08T09:48:30.000Z</time>
      </trkpt>
      <trkpt lat="42.87211" lon="-0.5652">
        <ele>1181</ele>
        <time>2021-01-08T09:48:51.000Z</time>
      </trkpt>
      <trkpt lat="42.872" lon="-0.56522">
        <ele>1186</ele>
        <time>2021-01-08T09:49:28.000Z</time>
      </trkpt>
      <trkpt lat="42.8719" lon="-0.56528">
        <ele>1188</ele>
        <time>2021-01-08T09:50:14.000Z</time>
      </trkpt>
      <trkpt lat="42.87202" lon="-0.56507">
        <ele>1199</ele>
        <time>2021-01-08T09:52:26.000Z</time>
      </trkpt>
      <trkpt lat="42.87191" lon="-0.56501">
        <ele>1200</ele>
        <time>2021-01-08T09:52:30.000Z</time>
      </trkpt>
      <trkpt lat="42.87181" lon="-0.56498">
        <ele>1201</ele>
        <time>2021-01-08T09:52:42.000Z</time>
      </trkpt>
      <trkpt lat="42.87181" lon="-0.56511">
        <ele>1202</ele>
        <time>2021-01-08T09:53:30.000Z</time>
      </trkpt>
      <trkpt lat="42.87168" lon="-0.56513">
        <ele>1204</ele>
        <time>2021-01-08T09:53:52.000Z</time>
      </trkpt>
      <trkpt lat="42.8716" lon="-0.56503">
        <ele>1205</ele>
        <time>2021-01-08T09:54:00.000Z</time>
      </trkpt>
      <trkpt lat="42.87094" lon="-0.56515">
        <ele>1207</ele>
        <time>2021-01-08T09:54:30.000Z</time>
      </trkpt>
      <trkpt lat="42.87057" lon="-0.56519">
        <ele>1208</ele>
        <time>2021-01-08T09:54:37.000Z</time>
      </trkpt>
      <trkpt lat="42.87052" lon="-0.56503">
        <ele>1284</ele>
        <time>2021-01-08T10:06:45.000Z</time>
      </trkpt>
      <trkpt lat="42.8705" lon="-0.56516">
        <ele>1286.8</ele>
        <time>2021-01-08T10:06:57.000Z</time>
      </trkpt>
      <trkpt lat="42.87051" lon="-0.56537">
        <ele>1286</ele>
        <time>2021-01-08T10:07:12.000Z</time>
      </trkpt>
      <trkpt lat="42.87054" lon="-0.56549">
        <ele>1287.9</ele>
        <time>2021-01-08T10:07:17.000Z</time>
      </trkpt>
      <trkpt lat="42.8706" lon="-0.56559">
        <ele>1288.5</ele>
        <time>2021-01-08T10:07:24.000Z</time>
      </trkpt>
      <trkpt lat="42.87069" lon="-0.56562">
        <ele>1288.8</ele>
        <time>2021-01-08T10:07:31.000Z</time>
      </trkpt>
      <trkpt lat="42.87063" lon="-0.56593">
        <ele>1290.4</ele>
        <time>2021-01-08T10:07:45.000Z</time>
      </trkpt>
      <trkpt lat="42.87059" lon="-0.56591">
        <ele>1295.5</ele>
        <time>2021-01-08T10:08:43.000Z</time>
      </trkpt>
      <trkpt lat="42.87055" lon="-0.56602">
        <ele>1296</ele>
        <time>2021-01-08T10:08:59.000Z</time>
      </trkpt>
      <trkpt lat="42.87049" lon="-0.56612">
        <ele>1298.6</ele>
        <time>2021-01-08T10:09:17.000Z</time>
      </trkpt>
      <trkpt lat="42.87058" lon="-0.56616">
        <ele>1299.9</ele>
        <time>2021-01-08T10:09:28.000Z</time>
      </trkpt>
      <trkpt lat="42.87065" lon="-0.56623">
        <ele>1300</ele>
        <time>2021-01-08T10:09:36.000Z</time>
      </trkpt>
      <trkpt lat="42.87066" lon="-0.56635">
        <ele>1302.1</ele>
        <time>2021-01-08T10:09:47.000Z</time>
      </trkpt>
      <trkpt lat="42.87061" lon="-0.56621">
        <ele>1303</ele>
        <time>2021-01-08T10:10:38.000Z</time>
      </trkpt>
      <trkpt lat="42.87054" lon="-0.56629">
        <ele>1305</ele>
        <time>2021-01-08T10:10:53.000Z</time>
      </trkpt>
      <trkpt lat="42.87053" lon="-0.56623">
        <ele>1310.5</ele>
        <time>2021-01-08T10:12:03.000Z</time>
      </trkpt>
      <trkpt lat="42.87043" lon="-0.56618">
        <ele>1311</ele>
        <time>2021-01-08T10:12:19.000Z</time>
      </trkpt>
      <trkpt lat="42.87033" lon="-0.56621">
        <ele>1313.3</ele>
        <time>2021-01-08T10:12:33.000Z</time>
      </trkpt>
      <trkpt lat="42.87026" lon="-0.56629">
        <ele>1313.2</ele>
        <time>2021-01-08T10:12:38.000Z</time>
      </trkpt>
      <trkpt lat="42.87036" lon="-0.56628">
        <ele>1315.2</ele>
        <time>2021-01-08T10:13:05.000Z</time>
      </trkpt>
      <trkpt lat="42.87046" lon="-0.5663">
        <ele>1316.1</ele>
        <time>2021-01-08T10:13:13.000Z</time>
      </trkpt>
      <trkpt lat="42.87037" lon="-0.56633">
        <ele>1319.4</ele>
        <time>2021-01-08T10:13:46.000Z</time>
      </trkpt>
      <trkpt lat="42.87044" lon="-0.56642">
        <ele>1320.4</ele>
        <time>2021-01-08T10:13:58.000Z</time>
      </trkpt>
      <trkpt lat="42.87051" lon="-0.56651">
        <ele>1321</ele>
        <time>2021-01-08T10:14:10.000Z</time>
      </trkpt>
      <trkpt lat="42.87059" lon="-0.56659">
        <ele>1322.6</ele>
        <time>2021-01-08T10:14:17.000Z</time>
      </trkpt>
      <trkpt lat="42.8705" lon="-0.56661">
        <ele>1325.8</ele>
        <time>2021-01-08T10:15:03.000Z</time>
      </trkpt>
      <trkpt lat="42.87042" lon="-0.56654">
        <ele>1327.5</ele>
        <time>2021-01-08T10:15:12.000Z</time>
      </trkpt>
      <trkpt lat="42.87035" lon="-0.56663">
        <ele>1328.2</ele>
        <time>2021-01-08T10:15:16.000Z</time>
      </trkpt>
      <trkpt lat="42.87026" lon="-0.56666">
        <ele>1328.8</ele>
        <time>2021-01-08T10:15:22.000Z</time>
      </trkpt>
      <trkpt lat="42.87018" lon="-0.56672">
        <ele>1335.3</ele>
        <time>2021-01-08T10:16:25.000Z</time>
      </trkpt>
      <trkpt lat="42.87021" lon="-0.56685">
        <ele>1338.1</ele>
        <time>2021-01-08T10:16:51.000Z</time>
      </trkpt>
      <trkpt lat="42.87026" lon="-0.56695">
        <ele>1339.3</ele>
        <time>2021-01-08T10:17:02.000Z</time>
      </trkpt>
      <trkpt lat="42.87025" lon="-0.56702">
        <ele>1344.5</ele>
        <time>2021-01-08T10:18:00.000Z</time>
      </trkpt>
      <trkpt lat="42.87031" lon="-0.56712">
        <ele>1348.7</ele>
        <time>2021-01-08T10:18:46.000Z</time>
      </trkpt>
      <trkpt lat="42.87027" lon="-0.56721">
        <ele>1353.6</ele>
        <time>2021-01-08T10:19:38.000Z</time>
      </trkpt>
      <trkpt lat="42.87024" lon="-0.56733">
        <ele>1356.7</ele>
        <time>2021-01-08T10:20:03.000Z</time>
      </trkpt>
      <trkpt lat="42.87026" lon="-0.56746">
        <ele>1358</ele>
        <time>2021-01-08T10:20:20.000Z</time>
      </trkpt>
      <trkpt lat="42.87026" lon="-0.56745">
        <ele>1365.4</ele>
        <time>2021-01-08T10:21:33.000Z</time>
      </trkpt>
      <trkpt lat="42.87026" lon="-0.56758">
        <ele>1367</ele>
        <time>2021-01-08T10:21:40.000Z</time>
      </trkpt>
      <trkpt lat="42.87022" lon="-0.56784">
        <ele>1368.5</ele>
        <time>2021-01-08T10:22:01.000Z</time>
      </trkpt>
      <trkpt lat="42.87017" lon="-0.56801">
        <ele>1369.9</ele>
        <time>2021-01-08T10:22:06.000Z</time>
      </trkpt>
      <trkpt lat="42.87016" lon="-0.56815">
        <ele>1369.9</ele>
        <time>2021-01-08T10:22:09.000Z</time>
      </trkpt>
      <trkpt lat="42.87014" lon="-0.56827">
        <ele>1370</ele>
        <time>2021-01-08T10:22:11.000Z</time>
      </trkpt>
      <trkpt lat="42.87017" lon="-0.56774">
        <ele>1375.9</ele>
        <time>2021-01-08T10:23:17.000Z</time>
      </trkpt>
      <trkpt lat="42.87012" lon="-0.56784">
        <ele>1377</ele>
        <time>2021-01-08T10:23:31.000Z</time>
      </trkpt>
      <trkpt lat="42.87009" lon="-0.56804">
        <ele>1377.9</ele>
        <time>2021-01-08T10:23:34.000Z</time>
      </trkpt>
      <trkpt lat="42.87008" lon="-0.56791">
        <ele>1378.4</ele>
        <time>2021-01-08T10:23:39.000Z</time>
      </trkpt>
      <trkpt lat="42.8699" lon="-0.56776">
        <ele>1384.9</ele>
        <time>2021-01-08T10:24:20.000Z</time>
      </trkpt>
      <trkpt lat="42.86997" lon="-0.56784">
        <ele>1387</ele>
        <time>2021-01-08T10:24:38.000Z</time>
      </trkpt>
      <trkpt lat="42.86993" lon="-0.56799">
        <ele>1387.8</ele>
        <time>2021-01-08T10:24:44.000Z</time>
      </trkpt>
      <trkpt lat="42.86991" lon="-0.56801">
        <ele>1407.6</ele>
        <time>2021-01-08T10:28:06.000Z</time>
      </trkpt>
      <trkpt lat="42.86997" lon="-0.56815">
        <ele>1411.5</ele>
        <time>2021-01-08T10:28:29.000Z</time>
      </trkpt>
      <trkpt lat="42.86996" lon="-0.56828">
        <ele>1412.2</ele>
        <time>2021-01-08T10:28:36.000Z</time>
      </trkpt>
      <trkpt lat="42.8699" lon="-0.5686">
        <ele>1411.8</ele>
        <time>2021-01-08T10:28:49.000Z</time>
      </trkpt>
      <trkpt lat="42.86992" lon="-0.56874">
        <ele>1413.6</ele>
        <time>2021-01-08T10:29:01.000Z</time>
      </trkpt>
      <trkpt lat="42.86991" lon="-0.56867">
        <ele>1422</ele>
        <time>2021-01-08T10:30:03.000Z</time>
      </trkpt>
      <trkpt lat="42.86984" lon="-0.56859">
        <ele>1425.4</ele>
        <time>2021-01-08T10:30:45.000Z</time>
      </trkpt>
      <trkpt lat="42.86982" lon="-0.56872">
        <ele>1427</ele>
        <time>2021-01-08T10:30:58.000Z</time>
      </trkpt>
      <trkpt lat="42.86974" lon="-0.56882">
        <ele>1427.2</ele>
        <time>2021-01-08T10:31:02.000Z</time>
      </trkpt>
      <trkpt lat="42.86964" lon="-0.56882">
        <ele>1427.6</ele>
        <time>2021-01-08T10:31:11.000Z</time>
      </trkpt>
      <trkpt lat="42.86962" lon="-0.5687">
        <ele>1428.1</ele>
        <time>2021-01-08T10:31:40.000Z</time>
      </trkpt>
      <trkpt lat="42.86971" lon="-0.56873">
        <ele>1428</ele>
        <time>2021-01-08T10:32:11.000Z</time>
      </trkpt>
      <trkpt lat="42.86975" lon="-0.56851">
        <ele>1430</ele>
        <time>2021-01-08T10:32:57.000Z</time>
      </trkpt>
      <trkpt lat="42.86975" lon="-0.56837">
        <ele>1432.3</ele>
        <time>2021-01-08T10:33:05.000Z</time>
      </trkpt>
      <trkpt lat="42.86971" lon="-0.56825">
        <ele>1434.8</ele>
        <time>2021-01-08T10:33:18.000Z</time>
      </trkpt>
      <trkpt lat="42.86962" lon="-0.56821">
        <ele>1435.1</ele>
        <time>2021-01-08T10:33:27.000Z</time>
      </trkpt>
      <trkpt lat="42.86953" lon="-0.56821">
        <ele>1436.5</ele>
        <time>2021-01-08T10:33:38.000Z</time>
      </trkpt>
      <trkpt lat="42.86944" lon="-0.5682">
        <ele>1438.4</ele>
        <time>2021-01-08T10:33:51.000Z</time>
      </trkpt>
      <trkpt lat="42.86937" lon="-0.56828">
        <ele>1440.6</ele>
        <time>2021-01-08T10:34:03.000Z</time>
      </trkpt>
      <trkpt lat="42.86931" lon="-0.56839">
        <ele>1443.3</ele>
        <time>2021-01-08T10:34:27.000Z</time>
      </trkpt>
      <trkpt lat="42.86922" lon="-0.56848">
        <ele>1445</ele>
        <time>2021-01-08T10:34:43.000Z</time>
      </trkpt>
      <trkpt lat="42.86922" lon="-0.5686">
        <ele>1445</ele>
        <time>2021-01-08T10:34:51.000Z</time>
      </trkpt>
      <trkpt lat="42.86927" lon="-0.56872">
        <ele>1447.2</ele>
        <time>2021-01-08T10:34:59.000Z</time>
      </trkpt>
      <trkpt lat="42.86919" lon="-0.56877">
        <ele>1449.6</ele>
        <time>2021-01-08T10:35:11.000Z</time>
      </trkpt>
      <trkpt lat="42.86911" lon="-0.56871">
        <ele>1450.9</ele>
        <time>2021-01-08T10:35:22.000Z</time>
      </trkpt>
      <trkpt lat="42.86901" lon="-0.56871">
        <ele>1453.6</ele>
        <time>2021-01-08T10:35:40.000Z</time>
      </trkpt>
      <trkpt lat="42.86895" lon="-0.56881">
        <ele>1456.5</ele>
        <time>2021-01-08T10:35:59.000Z</time>
      </trkpt>
      <trkpt lat="42.86894" lon="-0.56893">
        <ele>1457.1</ele>
        <time>2021-01-08T10:36:06.000Z</time>
      </trkpt>
      <trkpt lat="42.86897" lon="-0.56906">
        <ele>1457</ele>
        <time>2021-01-08T10:36:12.000Z</time>
      </trkpt>
      <trkpt lat="42.869" lon="-0.56918">
        <ele>1459.6</ele>
        <time>2021-01-08T10:36:22.000Z</time>
      </trkpt>
      <trkpt lat="42.86904" lon="-0.56931">
        <ele>1460.7</ele>
        <time>2021-01-08T10:36:32.000Z</time>
      </trkpt>
      <trkpt lat="42.86905" lon="-0.56933">
        <ele>1466.5</ele>
        <time>2021-01-08T10:37:08.000Z</time>
      </trkpt>
      <trkpt lat="42.86896" lon="-0.56939">
        <ele>1467.7</ele>
        <time>2021-01-08T10:37:21.000Z</time>
      </trkpt>
      <trkpt lat="42.86888" lon="-0.56948">
        <ele>1469.1</ele>
        <time>2021-01-08T10:37:31.000Z</time>
      </trkpt>
      <trkpt lat="42.86879" lon="-0.56954">
        <ele>1471.1</ele>
        <time>2021-01-08T10:37:58.000Z</time>
      </trkpt>
      <trkpt lat="42.86883" lon="-0.56965">
        <ele>1475.1</ele>
        <time>2021-01-08T10:49:26.000Z</time>
      </trkpt>
      <trkpt lat="42.86878" lon="-0.56975">
        <ele>1478.3</ele>
        <time>2021-01-08T10:49:48.000Z</time>
      </trkpt>
      <trkpt lat="42.86868" lon="-0.56977">
        <ele>1480.3</ele>
        <time>2021-01-08T10:50:03.000Z</time>
      </trkpt>
      <trkpt lat="42.8686" lon="-0.56981">
        <ele>1482.4</ele>
        <time>2021-01-08T10:50:26.000Z</time>
      </trkpt>
      <trkpt lat="42.86853" lon="-0.5699">
        <ele>1483.6</ele>
        <time>2021-01-08T10:50:42.000Z</time>
      </trkpt>
      <trkpt lat="42.86844" lon="-0.56985">
        <ele>1487.2</ele>
        <time>2021-01-08T10:51:13.000Z</time>
      </trkpt>
      <trkpt lat="42.86835" lon="-0.56987">
        <ele>1489.1</ele>
        <time>2021-01-08T10:51:28.000Z</time>
      </trkpt>
      <trkpt lat="42.86827" lon="-0.56992">
        <ele>1499.5</ele>
        <time>2021-01-08T10:53:02.000Z</time>
      </trkpt>
      <trkpt lat="42.86827" lon="-0.57005">
        <ele>1500.7</ele>
        <time>2021-01-08T10:53:13.000Z</time>
      </trkpt>
      <trkpt lat="42.86834" lon="-0.57015">
        <ele>1506.9</ele>
        <time>2021-01-08T10:54:02.000Z</time>
      </trkpt>
      <trkpt lat="42.8683" lon="-0.57026">
        <ele>1508.2</ele>
        <time>2021-01-08T10:54:12.000Z</time>
      </trkpt>
      <trkpt lat="42.86821" lon="-0.57032">
        <ele>1512</ele>
        <time>2021-01-08T10:54:47.000Z</time>
      </trkpt>
      <trkpt lat="42.86813" lon="-0.5704">
        <ele>1513</ele>
        <time>2021-01-08T10:54:55.000Z</time>
      </trkpt>
      <trkpt lat="42.86803" lon="-0.57055">
        <ele>1525.5</ele>
        <time>2021-01-08T10:56:37.000Z</time>
      </trkpt>
      <trkpt lat="42.868" lon="-0.57067">
        <ele>1526.9</ele>
        <time>2021-01-08T10:56:48.000Z</time>
      </trkpt>
      <trkpt lat="42.86799" lon="-0.5708">
        <ele>1528.2</ele>
        <time>2021-01-08T10:57:01.000Z</time>
      </trkpt>
      <trkpt lat="42.86793" lon="-0.5709">
        <ele>1532.2</ele>
        <time>2021-01-08T10:57:27.000Z</time>
      </trkpt>
      <trkpt lat="42.86788" lon="-0.57101">
        <ele>1535.4</ele>
        <time>2021-01-08T10:57:49.000Z</time>
      </trkpt>
      <trkpt lat="42.86788" lon="-0.57114">
        <ele>1537.1</ele>
        <time>2021-01-08T10:57:57.000Z</time>
      </trkpt>
      <trkpt lat="42.86788" lon="-0.57127">
        <ele>1539.4</ele>
        <time>2021-01-08T10:58:13.000Z</time>
      </trkpt>
      <trkpt lat="42.86784" lon="-0.57139">
        <ele>1540.9</ele>
        <time>2021-01-08T10:58:24.000Z</time>
      </trkpt>
      <trkpt lat="42.86783" lon="-0.57152">
        <ele>1545.5</ele>
        <time>2021-01-08T10:58:52.000Z</time>
      </trkpt>
      <trkpt lat="42.86776" lon="-0.5716">
        <ele>1547.9</ele>
        <time>2021-01-08T10:59:04.000Z</time>
      </trkpt>
      <trkpt lat="42.86769" lon="-0.57167">
        <ele>1549.4</ele>
        <time>2021-01-08T10:59:16.000Z</time>
      </trkpt>
      <trkpt lat="42.86759" lon="-0.57169">
        <ele>1550.3</ele>
        <time>2021-01-08T10:59:29.000Z</time>
      </trkpt>
      <trkpt lat="42.86751" lon="-0.57177">
        <ele>1551.8</ele>
        <time>2021-01-08T10:59:40.000Z</time>
      </trkpt>
      <trkpt lat="42.86744" lon="-0.57187">
        <ele>1552.8</ele>
        <time>2021-01-08T10:59:48.000Z</time>
      </trkpt>
      <trkpt lat="42.8674" lon="-0.57198">
        <ele>1555.4</ele>
        <time>2021-01-08T10:59:58.000Z</time>
      </trkpt>
      <trkpt lat="42.86733" lon="-0.5721">
        <ele>1555</ele>
        <time>2021-01-08T11:00:06.000Z</time>
      </trkpt>
      <trkpt lat="42.86727" lon="-0.57222">
        <ele>1556.1</ele>
        <time>2021-01-08T11:00:11.000Z</time>
      </trkpt>
      <trkpt lat="42.86722" lon="-0.57232">
        <ele>1556.7</ele>
        <time>2021-01-08T11:00:18.000Z</time>
      </trkpt>
      <trkpt lat="42.86717" lon="-0.57243">
        <ele>1557.8</ele>
        <time>2021-01-08T11:00:29.000Z</time>
      </trkpt>
      <trkpt lat="42.86709" lon="-0.57251">
        <ele>1558</ele>
        <time>2021-01-08T11:00:41.000Z</time>
      </trkpt>
      <trkpt lat="42.86703" lon="-0.57262">
        <ele>1560.6</ele>
        <time>2021-01-08T11:00:53.000Z</time>
      </trkpt>
      <trkpt lat="42.86697" lon="-0.57272">
        <ele>1561.9</ele>
        <time>2021-01-08T11:01:06.000Z</time>
      </trkpt>
      <trkpt lat="42.86695" lon="-0.57271">
        <ele>1565</ele>
        <time>2021-01-08T11:01:30.000Z</time>
      </trkpt>
      <trkpt lat="42.86699" lon="-0.5726">
        <ele>1565.8</ele>
        <time>2021-01-08T11:03:40.000Z</time>
      </trkpt>
      <trkpt lat="42.86692" lon="-0.57253">
        <ele>1567.4</ele>
        <time>2021-01-08T11:07:07.000Z</time>
      </trkpt>
      <trkpt lat="42.86683" lon="-0.5725">
        <ele>1568.8</ele>
        <time>2021-01-08T11:07:15.000Z</time>
      </trkpt>
      <trkpt lat="42.86673" lon="-0.57248">
        <ele>1570.5</ele>
        <time>2021-01-08T11:07:24.000Z</time>
      </trkpt>
      <trkpt lat="42.86664" lon="-0.57244">
        <ele>1573</ele>
        <time>2021-01-08T11:07:35.000Z</time>
      </trkpt>
      <trkpt lat="42.86656" lon="-0.57238">
        <ele>1575.2</ele>
        <time>2021-01-08T11:07:46.000Z</time>
      </trkpt>
      <trkpt lat="42.86647" lon="-0.57233">
        <ele>1577.2</ele>
        <time>2021-01-08T11:07:58.000Z</time>
      </trkpt>
      <trkpt lat="42.86637" lon="-0.57234">
        <ele>1579.6</ele>
        <time>2021-01-08T11:08:12.000Z</time>
      </trkpt>
      <trkpt lat="42.86628" lon="-0.5723">
        <ele>1583.8</ele>
        <time>2021-01-08T11:08:30.000Z</time>
      </trkpt>
      <trkpt lat="42.86618" lon="-0.57227">
        <ele>1585.7</ele>
        <time>2021-01-08T11:08:39.000Z</time>
      </trkpt>
      <trkpt lat="42.86609" lon="-0.57224">
        <ele>1586.8</ele>
        <time>2021-01-08T11:08:50.000Z</time>
      </trkpt>
      <trkpt lat="42.86599" lon="-0.57222">
        <ele>1589.7</ele>
        <time>2021-01-08T11:09:07.000Z</time>
      </trkpt>
      <trkpt lat="42.86592" lon="-0.5723">
        <ele>1590.9</ele>
        <time>2021-01-08T11:09:16.000Z</time>
      </trkpt>
      <trkpt lat="42.86586" lon="-0.57241">
        <ele>1593.1</ele>
        <time>2021-01-08T11:09:30.000Z</time>
      </trkpt>
      <trkpt lat="42.86578" lon="-0.57243">
        <ele>1598.1</ele>
        <time>2021-01-08T11:09:54.000Z</time>
      </trkpt>
      <trkpt lat="42.86586" lon="-0.57251">
        <ele>1600.2</ele>
        <time>2021-01-08T11:10:08.000Z</time>
      </trkpt>
      <trkpt lat="42.86577" lon="-0.57257">
        <ele>1601.7</ele>
        <time>2021-01-08T11:10:21.000Z</time>
      </trkpt>
      <trkpt lat="42.86569" lon="-0.57265">
        <ele>1604.3</ele>
        <time>2021-01-08T11:10:40.000Z</time>
      </trkpt>
      <trkpt lat="42.86565" lon="-0.57277">
        <ele>1606.3</ele>
        <time>2021-01-08T11:10:53.000Z</time>
      </trkpt>
      <trkpt lat="42.8656" lon="-0.57289">
        <ele>1608.8</ele>
        <time>2021-01-08T11:11:09.000Z</time>
      </trkpt>
      <trkpt lat="42.86551" lon="-0.57287">
        <ele>1610.8</ele>
        <time>2021-01-08T11:11:20.000Z</time>
      </trkpt>
      <trkpt lat="42.86545" lon="-0.57297">
        <ele>1613.7</ele>
        <time>2021-01-08T11:11:34.000Z</time>
      </trkpt>
      <trkpt lat="42.86537" lon="-0.57304">
        <ele>1616.6</ele>
        <time>2021-01-08T11:11:48.000Z</time>
      </trkpt>
      <trkpt lat="42.86527" lon="-0.57302">
        <ele>1618</ele>
        <time>2021-01-08T11:11:57.000Z</time>
      </trkpt>
      <trkpt lat="42.86517" lon="-0.57301">
        <ele>1620.3</ele>
        <time>2021-01-08T11:12:13.000Z</time>
      </trkpt>
      <trkpt lat="42.86509" lon="-0.57306">
        <ele>1621.5</ele>
        <time>2021-01-08T11:12:23.000Z</time>
      </trkpt>
      <trkpt lat="42.865" lon="-0.57307">
        <ele>1622.7</ele>
        <time>2021-01-08T11:12:35.000Z</time>
      </trkpt>
      <trkpt lat="42.8649" lon="-0.5731">
        <ele>1625.1</ele>
        <time>2021-01-08T11:12:47.000Z</time>
      </trkpt>
      <trkpt lat="42.86481" lon="-0.57312">
        <ele>1627.4</ele>
        <time>2021-01-08T11:12:58.000Z</time>
      </trkpt>
      <trkpt lat="42.86474" lon="-0.57321">
        <ele>1629</ele>
        <time>2021-01-08T11:13:08.000Z</time>
      </trkpt>
      <trkpt lat="42.8647" lon="-0.57332">
        <ele>1630.1</ele>
        <time>2021-01-08T11:13:16.000Z</time>
      </trkpt>
      <trkpt lat="42.86465" lon="-0.57343">
        <ele>1631.3</ele>
        <time>2021-01-08T11:13:25.000Z</time>
      </trkpt>
      <trkpt lat="42.86456" lon="-0.5735">
        <ele>1632.9</ele>
        <time>2021-01-08T11:13:33.000Z</time>
      </trkpt>
      <trkpt lat="42.86451" lon="-0.57362">
        <ele>1636.3</ele>
        <time>2021-01-08T11:13:51.000Z</time>
      </trkpt>
      <trkpt lat="42.86442" lon="-0.57363">
        <ele>1637.6</ele>
        <time>2021-01-08T11:13:57.000Z</time>
      </trkpt>
      <trkpt lat="42.86441" lon="-0.57376">
        <ele>1639.4</ele>
        <time>2021-01-08T11:14:07.000Z</time>
      </trkpt>
      <trkpt lat="42.8644" lon="-0.5739">
        <ele>1641</ele>
        <time>2021-01-08T11:14:18.000Z</time>
      </trkpt>
      <trkpt lat="42.8644" lon="-0.57403">
        <ele>1642.8</ele>
        <time>2021-01-08T11:14:30.000Z</time>
      </trkpt>
      <trkpt lat="42.86432" lon="-0.57411">
        <ele>1644.6</ele>
        <time>2021-01-08T11:14:41.000Z</time>
      </trkpt>
      <trkpt lat="42.86422" lon="-0.57413">
        <ele>1645.6</ele>
        <time>2021-01-08T11:14:51.000Z</time>
      </trkpt>
      <trkpt lat="42.86412" lon="-0.57412">
        <ele>1647.1</ele>
        <time>2021-01-08T11:15:02.000Z</time>
      </trkpt>
      <trkpt lat="42.86404" lon="-0.57409">
        <ele>1647.5</ele>
        <time>2021-01-08T11:15:09.000Z</time>
      </trkpt>
      <trkpt lat="42.86394" lon="-0.57406">
        <ele>1648.4</ele>
        <time>2021-01-08T11:15:20.000Z</time>
      </trkpt>
      <trkpt lat="42.86384" lon="-0.57402">
        <ele>1648.8</ele>
        <time>2021-01-08T11:15:29.000Z</time>
      </trkpt>
      <trkpt lat="42.86373" lon="-0.57406">
        <ele>1650.1</ele>
        <time>2021-01-08T11:15:42.000Z</time>
      </trkpt>
      <trkpt lat="42.86364" lon="-0.57411">
        <ele>1649.7</ele>
        <time>2021-01-08T11:15:48.000Z</time>
      </trkpt>
      <trkpt lat="42.86355" lon="-0.57406">
        <ele>1649.7</ele>
        <time>2021-01-08T11:15:54.000Z</time>
      </trkpt>
      <trkpt lat="42.86347" lon="-0.57401">
        <ele>1650.9</ele>
        <time>2021-01-08T11:16:01.000Z</time>
      </trkpt>
      <trkpt lat="42.86338" lon="-0.57393">
        <ele>1651.5</ele>
        <time>2021-01-08T11:16:09.000Z</time>
      </trkpt>
      <trkpt lat="42.86329" lon="-0.57385">
        <ele>1650.9</ele>
        <time>2021-01-08T11:16:15.000Z</time>
      </trkpt>
      <trkpt lat="42.86323" lon="-0.57377">
        <ele>1651.1</ele>
        <time>2021-01-08T11:16:21.000Z</time>
      </trkpt>
      <trkpt lat="42.86315" lon="-0.57371">
        <ele>1651.3</ele>
        <time>2021-01-08T11:16:27.000Z</time>
      </trkpt>
      <trkpt lat="42.86307" lon="-0.57362">
        <ele>1651.4</ele>
        <time>2021-01-08T11:16:35.000Z</time>
      </trkpt>
      <trkpt lat="42.86298" lon="-0.57359">
        <ele>1651.4</ele>
        <time>2021-01-08T11:16:43.000Z</time>
      </trkpt>
      <trkpt lat="42.86289" lon="-0.57356">
        <ele>1651.1</ele>
        <time>2021-01-08T11:16:51.000Z</time>
      </trkpt>
      <trkpt lat="42.8628" lon="-0.57355">
        <ele>1650.7</ele>
        <time>2021-01-08T11:16:58.000Z</time>
      </trkpt>
      <trkpt lat="42.86272" lon="-0.57347">
        <ele>1651.6</ele>
        <time>2021-01-08T11:17:07.000Z</time>
      </trkpt>
      <trkpt lat="42.86264" lon="-0.5734">
        <ele>1653.3</ele>
        <time>2021-01-08T11:17:15.000Z</time>
      </trkpt>
      <trkpt lat="42.86255" lon="-0.57332">
        <ele>1654.8</ele>
        <time>2021-01-08T11:17:24.000Z</time>
      </trkpt>
      <trkpt lat="42.86246" lon="-0.57326">
        <ele>1655.7</ele>
        <time>2021-01-08T11:17:32.000Z</time>
      </trkpt>
      <trkpt lat="42.86237" lon="-0.57323">
        <ele>1657.8</ele>
        <time>2021-01-08T11:17:45.000Z</time>
      </trkpt>
      <trkpt lat="42.86229" lon="-0.57319">
        <ele>1659.6</ele>
        <time>2021-01-08T11:17:57.000Z</time>
      </trkpt>
      <trkpt lat="42.86219" lon="-0.57312">
        <ele>1662.8</ele>
        <time>2021-01-08T11:18:10.000Z</time>
      </trkpt>
      <trkpt lat="42.86216" lon="-0.573">
        <ele>1663.4</ele>
        <time>2021-01-08T11:18:16.000Z</time>
      </trkpt>
      <trkpt lat="42.86209" lon="-0.57291">
        <ele>1663.9</ele>
        <time>2021-01-08T11:18:28.000Z</time>
      </trkpt>
      <trkpt lat="42.86201" lon="-0.57284">
        <ele>1666</ele>
        <time>2021-01-08T11:18:47.000Z</time>
      </trkpt>
      <trkpt lat="42.86193" lon="-0.57277">
        <ele>1666.5</ele>
        <time>2021-01-08T11:18:59.000Z</time>
      </trkpt>
      <trkpt lat="42.86189" lon="-0.57265">
        <ele>1668.5</ele>
        <time>2021-01-08T11:19:17.000Z</time>
      </trkpt>
      <trkpt lat="42.86186" lon="-0.57252">
        <ele>1669.1</ele>
        <time>2021-01-08T11:19:28.000Z</time>
      </trkpt>
      <trkpt lat="42.86184" lon="-0.57239">
        <ele>1671.3</ele>
        <time>2021-01-08T11:19:42.000Z</time>
      </trkpt>
      <trkpt lat="42.86178" lon="-0.57229">
        <ele>1672.6</ele>
        <time>2021-01-08T11:19:53.000Z</time>
      </trkpt>
      <trkpt lat="42.86172" lon="-0.57219">
        <ele>1674.1</ele>
        <time>2021-01-08T11:20:05.000Z</time>
      </trkpt>
      <trkpt lat="42.86167" lon="-0.57208">
        <ele>1675.5</ele>
        <time>2021-01-08T11:20:40.000Z</time>
      </trkpt>
      <trkpt lat="42.86163" lon="-0.57196">
        <ele>1676.6</ele>
        <time>2021-01-08T11:20:50.000Z</time>
      </trkpt>
      <trkpt lat="42.8616" lon="-0.57184">
        <ele>1678</ele>
        <time>2021-01-08T11:21:00.000Z</time>
      </trkpt>
      <trkpt lat="42.86153" lon="-0.57176">
        <ele>1678.9</ele>
        <time>2021-01-08T11:21:06.000Z</time>
      </trkpt>
      <trkpt lat="42.86144" lon="-0.5717">
        <ele>1680.9</ele>
        <time>2021-01-08T11:21:15.000Z</time>
      </trkpt>
      <trkpt lat="42.86136" lon="-0.57167">
        <ele>1682.7</ele>
        <time>2021-01-08T11:21:26.000Z</time>
      </trkpt>
      <trkpt lat="42.86127" lon="-0.57173">
        <ele>1683.2</ele>
        <time>2021-01-08T11:21:38.000Z</time>
      </trkpt>
      <trkpt lat="42.8612" lon="-0.57181">
        <ele>1683.4</ele>
        <time>2021-01-08T11:21:48.000Z</time>
      </trkpt>
      <trkpt lat="42.8611" lon="-0.57181">
        <ele>1684</ele>
        <time>2021-01-08T11:21:57.000Z</time>
      </trkpt>
      <trkpt lat="42.861" lon="-0.5718">
        <ele>1684</ele>
        <time>2021-01-08T11:22:05.000Z</time>
      </trkpt>
      <trkpt lat="42.86095" lon="-0.57169">
        <ele>1684.7</ele>
        <time>2021-01-08T11:22:13.000Z</time>
      </trkpt>
      <trkpt lat="42.86092" lon="-0.57181">
        <ele>1686.5</ele>
        <time>2021-01-08T11:22:38.000Z</time>
      </trkpt>
      <trkpt lat="42.86091" lon="-0.57194">
        <ele>1687.2</ele>
        <time>2021-01-08T11:22:47.000Z</time>
      </trkpt>
      <trkpt lat="42.86088" lon="-0.57205">
        <ele>1688.1</ele>
        <time>2021-01-08T11:22:57.000Z</time>
      </trkpt>
      <trkpt lat="42.86082" lon="-0.57216">
        <ele>1689.1</ele>
        <time>2021-01-08T11:23:08.000Z</time>
      </trkpt>
      <trkpt lat="42.86084" lon="-0.57228">
        <ele>1689.7</ele>
        <time>2021-01-08T11:23:18.000Z</time>
      </trkpt>
      <trkpt lat="42.86085" lon="-0.57242">
        <ele>1690.3</ele>
        <time>2021-01-08T11:23:27.000Z</time>
      </trkpt>
      <trkpt lat="42.86089" lon="-0.57254">
        <ele>1691.3</ele>
        <time>2021-01-08T11:23:37.000Z</time>
      </trkpt>
      <trkpt lat="42.86083" lon="-0.57264">
        <ele>1694.4</ele>
        <time>2021-01-08T11:24:02.000Z</time>
      </trkpt>
      <trkpt lat="42.86074" lon="-0.57264">
        <ele>1695.9</ele>
        <time>2021-01-08T11:24:12.000Z</time>
      </trkpt>
      <trkpt lat="42.86067" lon="-0.57272">
        <ele>1697.9</ele>
        <time>2021-01-08T11:24:24.000Z</time>
      </trkpt>
      <trkpt lat="42.86059" lon="-0.5728">
        <ele>1700</ele>
        <time>2021-01-08T11:24:43.000Z</time>
      </trkpt>
      <trkpt lat="42.86054" lon="-0.5729">
        <ele>1700.5</ele>
        <time>2021-01-08T11:24:55.000Z</time>
      </trkpt>
      <trkpt lat="42.86047" lon="-0.57281">
        <ele>1704.6</ele>
        <time>2021-01-08T11:25:17.000Z</time>
      </trkpt>
      <trkpt lat="42.86041" lon="-0.57272">
        <ele>1706.3</ele>
        <time>2021-01-08T11:25:26.000Z</time>
      </trkpt>
      <trkpt lat="42.86035" lon="-0.57283">
        <ele>1714.6</ele>
        <time>2021-01-08T11:26:12.000Z</time>
      </trkpt>
      <trkpt lat="42.86026" lon="-0.57288">
        <ele>1718</ele>
        <time>2021-01-08T11:26:34.000Z</time>
      </trkpt>
      <trkpt lat="42.86017" lon="-0.57291">
        <ele>1722.4</ele>
        <time>2021-01-08T11:27:00.000Z</time>
      </trkpt>
      <trkpt lat="42.8601" lon="-0.57297">
        <ele>1726.8</ele>
        <time>2021-01-08T11:27:24.000Z</time>
      </trkpt>
      <trkpt lat="42.86001" lon="-0.57306">
        <ele>1728.6</ele>
        <time>2021-01-08T11:27:38.000Z</time>
      </trkpt>
      <trkpt lat="42.85994" lon="-0.57315">
        <ele>1730</ele>
        <time>2021-01-08T11:27:47.000Z</time>
      </trkpt>
      <trkpt lat="42.85992" lon="-0.57301">
        <ele>1740.8</ele>
        <time>2021-01-08T11:29:05.000Z</time>
      </trkpt>
      <trkpt lat="42.85985" lon="-0.57293">
        <ele>1744</ele>
        <time>2021-01-08T11:29:25.000Z</time>
      </trkpt>
      <trkpt lat="42.85976" lon="-0.57286">
        <ele>1747.8</ele>
        <time>2021-01-08T11:29:50.000Z</time>
      </trkpt>
      <trkpt lat="42.85971" lon="-0.57275">
        <ele>1749.6</ele>
        <time>2021-01-08T11:30:05.000Z</time>
      </trkpt>
      <trkpt lat="42.85969" lon="-0.57263">
        <ele>1751.4</ele>
        <time>2021-01-08T11:30:22.000Z</time>
      </trkpt>
      <trkpt lat="42.85967" lon="-0.5725">
        <ele>1754.4</ele>
        <time>2021-01-08T11:30:37.000Z</time>
      </trkpt>
      <trkpt lat="42.85958" lon="-0.57246">
        <ele>1756.5</ele>
        <time>2021-01-08T11:30:58.000Z</time>
      </trkpt>
      <trkpt lat="42.85957" lon="-0.57259">
        <ele>1760.5</ele>
        <time>2021-01-08T11:31:35.000Z</time>
      </trkpt>
      <trkpt lat="42.85948" lon="-0.57265">
        <ele>1762.2</ele>
        <time>2021-01-08T11:31:44.000Z</time>
      </trkpt>
      <trkpt lat="42.8594" lon="-0.57273">
        <ele>1763.6</ele>
        <time>2021-01-08T11:31:55.000Z</time>
      </trkpt>
      <trkpt lat="42.85932" lon="-0.57279">
        <ele>1765.7</ele>
        <time>2021-01-08T11:32:08.000Z</time>
      </trkpt>
      <trkpt lat="42.85935" lon="-0.57271">
        <ele>1776.7</ele>
        <time>2021-01-08T11:33:33.000Z</time>
      </trkpt>
      <trkpt lat="42.85927" lon="-0.57267">
        <ele>1777.8</ele>
        <time>2021-01-08T11:33:40.000Z</time>
      </trkpt>
      <trkpt lat="42.85918" lon="-0.57261">
        <ele>1778.8</ele>
        <time>2021-01-08T11:33:50.000Z</time>
      </trkpt>
      <trkpt lat="42.85915" lon="-0.57248">
        <ele>1779.6</ele>
        <time>2021-01-08T11:34:31.000Z</time>
      </trkpt>
      <trkpt lat="42.85905" lon="-0.57247">
        <ele>1781.4</ele>
        <time>2021-01-08T11:34:45.000Z</time>
      </trkpt>
      <trkpt lat="42.85894" lon="-0.57245">
        <ele>1785.5</ele>
        <time>2021-01-08T11:35:16.000Z</time>
      </trkpt>
      <trkpt lat="42.85886" lon="-0.57238">
        <ele>1788.1</ele>
        <time>2021-01-08T11:35:31.000Z</time>
      </trkpt>
      <trkpt lat="42.85877" lon="-0.57239">
        <ele>1789.5</ele>
        <time>2021-01-08T11:35:40.000Z</time>
      </trkpt>
      <trkpt lat="42.85872" lon="-0.57251">
        <ele>1791.2</ele>
        <time>2021-01-08T11:35:54.000Z</time>
      </trkpt>
      <trkpt lat="42.85867" lon="-0.57261">
        <ele>1792.5</ele>
        <time>2021-01-08T11:36:05.000Z</time>
      </trkpt>
      <trkpt lat="42.85871" lon="-0.57272">
        <ele>1799.6</ele>
        <time>2021-01-08T11:36:57.000Z</time>
      </trkpt>
      <trkpt lat="42.85862" lon="-0.57269">
        <ele>1803.1</ele>
        <time>2021-01-08T11:37:22.000Z</time>
      </trkpt>
      <trkpt lat="42.85853" lon="-0.57274">
        <ele>1806.4</ele>
        <time>2021-01-08T11:37:51.000Z</time>
      </trkpt>
      <trkpt lat="42.85844" lon="-0.57273">
        <ele>1814.6</ele>
        <time>2021-01-08T11:38:49.000Z</time>
      </trkpt>
      <trkpt lat="42.85838" lon="-0.57284">
        <ele>1815.5</ele>
        <time>2021-01-08T11:38:56.000Z</time>
      </trkpt>
      <trkpt lat="42.85833" lon="-0.57296">
        <ele>1816.9</ele>
        <time>2021-01-08T11:39:04.000Z</time>
      </trkpt>
      <trkpt lat="42.85832" lon="-0.57309">
        <ele>1817.5</ele>
        <time>2021-01-08T11:39:17.000Z</time>
      </trkpt>
      <trkpt lat="42.85838" lon="-0.57319">
        <ele>1819.6</ele>
        <time>2021-01-08T11:39:34.000Z</time>
      </trkpt>
      <trkpt lat="42.85828" lon="-0.57319">
        <ele>1822.5</ele>
        <time>2021-01-08T11:40:06.000Z</time>
      </trkpt>
      <trkpt lat="42.85822" lon="-0.5731">
        <ele>1822.8</ele>
        <time>2021-01-08T11:40:41.000Z</time>
      </trkpt>
      <trkpt lat="42.85811" lon="-0.57309">
        <ele>1827.9</ele>
        <time>2021-01-08T11:41:19.000Z</time>
      </trkpt>
      <trkpt lat="42.85816" lon="-0.57321">
        <ele>1829.8</ele>
        <time>2021-01-08T11:41:32.000Z</time>
      </trkpt>
      <trkpt lat="42.85809" lon="-0.57313">
        <ele>1838.8</ele>
        <time>2021-01-08T11:42:35.000Z</time>
      </trkpt>
      <trkpt lat="42.85801" lon="-0.57321">
        <ele>1841.4</ele>
        <time>2021-01-08T11:42:55.000Z</time>
      </trkpt>
      <trkpt lat="42.85795" lon="-0.57332">
        <ele>1844.1</ele>
        <time>2021-01-08T11:43:10.000Z</time>
      </trkpt>
      <trkpt lat="42.85786" lon="-0.57328">
        <ele>1848.7</ele>
        <time>2021-01-08T11:43:41.000Z</time>
      </trkpt>
      <trkpt lat="42.85785" lon="-0.57316">
        <ele>1851.3</ele>
        <time>2021-01-08T11:44:00.000Z</time>
      </trkpt>
      <trkpt lat="42.85776" lon="-0.57312">
        <ele>1852</ele>
        <time>2021-01-08T11:44:09.000Z</time>
      </trkpt>
      <trkpt lat="42.85768" lon="-0.57317">
        <ele>1852.1</ele>
        <time>2021-01-08T11:44:15.000Z</time>
      </trkpt>
      <trkpt lat="42.8576" lon="-0.57308">
        <ele>1853</ele>
        <time>2021-01-08T11:44:26.000Z</time>
      </trkpt>
      <trkpt lat="42.85765" lon="-0.57321">
        <ele>1854.4</ele>
        <time>2021-01-08T11:44:42.000Z</time>
      </trkpt>
      <trkpt lat="42.85765" lon="-0.57336">
        <ele>1855.8</ele>
        <time>2021-01-08T11:44:50.000Z</time>
      </trkpt>
      <trkpt lat="42.85771" lon="-0.57346">
        <ele>1857.6</ele>
        <time>2021-01-08T11:45:03.000Z</time>
      </trkpt>
      <trkpt lat="42.85776" lon="-0.57358">
        <ele>1858.7</ele>
        <time>2021-01-08T11:45:12.000Z</time>
      </trkpt>
      <trkpt lat="42.85765" lon="-0.57358">
        <ele>1861.4</ele>
        <time>2021-01-08T11:45:42.000Z</time>
      </trkpt>
      <trkpt lat="42.85757" lon="-0.57352">
        <ele>1862.4</ele>
        <time>2021-01-08T11:45:52.000Z</time>
      </trkpt>
      <trkpt lat="42.85756" lon="-0.57365">
        <ele>1867.3</ele>
        <time>2021-01-08T11:46:31.000Z</time>
      </trkpt>
      <trkpt lat="42.85755" lon="-0.57378">
        <ele>1869.7</ele>
        <time>2021-01-08T11:46:46.000Z</time>
      </trkpt>
      <trkpt lat="42.85757" lon="-0.57392">
        <ele>1871.8</ele>
        <time>2021-01-08T11:46:57.000Z</time>
      </trkpt>
      <trkpt lat="42.85759" lon="-0.57404">
        <ele>1877.4</ele>
        <time>2021-01-08T11:47:39.000Z</time>
      </trkpt>
      <trkpt lat="42.85748" lon="-0.57405">
        <ele>1881.2</ele>
        <time>2021-01-08T11:48:04.000Z</time>
      </trkpt>
      <trkpt lat="42.85739" lon="-0.57407">
        <ele>1882.7</ele>
        <time>2021-01-08T11:48:14.000Z</time>
      </trkpt>
      <trkpt lat="42.85733" lon="-0.57415">
        <ele>1884.6</ele>
        <time>2021-01-08T11:48:29.000Z</time>
      </trkpt>
      <trkpt lat="42.85741" lon="-0.57424">
        <ele>1887.8</ele>
        <time>2021-01-08T11:48:58.000Z</time>
      </trkpt>
      <trkpt lat="42.85731" lon="-0.57424">
        <ele>1891.4</ele>
        <time>2021-01-08T11:49:26.000Z</time>
      </trkpt>
      <trkpt lat="42.85724" lon="-0.57431">
        <ele>1892.3</ele>
        <time>2021-01-08T11:49:36.000Z</time>
      </trkpt>
      <trkpt lat="42.85717" lon="-0.57424">
        <ele>1897.4</ele>
        <time>2021-01-08T11:50:13.000Z</time>
      </trkpt>
      <trkpt lat="42.85709" lon="-0.57417">
        <ele>1899.4</ele>
        <time>2021-01-08T11:50:26.000Z</time>
      </trkpt>
      <trkpt lat="42.85711" lon="-0.5743">
        <ele>1901.2</ele>
        <time>2021-01-08T11:50:42.000Z</time>
      </trkpt>
      <trkpt lat="42.85711" lon="-0.57444">
        <ele>1902.5</ele>
        <time>2021-01-08T11:50:50.000Z</time>
      </trkpt>
      <trkpt lat="42.85707" lon="-0.57456">
        <ele>1903.1</ele>
        <time>2021-01-08T11:50:56.000Z</time>
      </trkpt>
      <trkpt lat="42.85705" lon="-0.57468">
        <ele>1908.4</ele>
        <time>2021-01-08T11:51:35.000Z</time>
      </trkpt>
      <trkpt lat="42.85697" lon="-0.57472">
        <ele>1910.4</ele>
        <time>2021-01-08T11:51:54.000Z</time>
      </trkpt>
      <trkpt lat="42.85688" lon="-0.57469">
        <ele>1912.5</ele>
        <time>2021-01-08T11:52:08.000Z</time>
      </trkpt>
      <trkpt lat="42.85683" lon="-0.57458">
        <ele>1915.8</ele>
        <time>2021-01-08T11:52:39.000Z</time>
      </trkpt>
      <trkpt lat="42.85674" lon="-0.57465">
        <ele>1919.8</ele>
        <time>2021-01-08T11:53:11.000Z</time>
      </trkpt>
      <trkpt lat="42.85672" lon="-0.57477">
        <ele>1921.5</ele>
        <time>2021-01-08T11:53:25.000Z</time>
      </trkpt>
      <trkpt lat="42.85665" lon="-0.57489">
        <ele>1923.2</ele>
        <time>2021-01-08T11:53:39.000Z</time>
      </trkpt>
      <trkpt lat="42.8567" lon="-0.57499">
        <ele>1925.8</ele>
        <time>2021-01-08T11:53:55.000Z</time>
      </trkpt>
      <trkpt lat="42.85667" lon="-0.57511">
        <ele>1928.1</ele>
        <time>2021-01-08T11:54:09.000Z</time>
      </trkpt>
      <trkpt lat="42.85662" lon="-0.57522">
        <ele>1930.5</ele>
        <time>2021-01-08T11:54:21.000Z</time>
      </trkpt>
      <trkpt lat="42.85658" lon="-0.57533">
        <ele>1936</ele>
        <time>2021-01-08T11:55:19.000Z</time>
      </trkpt>
      <trkpt lat="42.8565" lon="-0.57525">
        <ele>1938.6</ele>
        <time>2021-01-08T11:55:35.000Z</time>
      </trkpt>
      <trkpt lat="42.85643" lon="-0.57515">
        <ele>1942</ele>
        <time>2021-01-08T11:55:57.000Z</time>
      </trkpt>
      <trkpt lat="42.85634" lon="-0.57509">
        <ele>1943.5</ele>
        <time>2021-01-08T11:56:06.000Z</time>
      </trkpt>
      <trkpt lat="42.85633" lon="-0.57495">
        <ele>1949.3</ele>
        <time>2021-01-08T11:56:50.000Z</time>
      </trkpt>
      <trkpt lat="42.85626" lon="-0.57484">
        <ele>1951.7</ele>
        <time>2021-01-08T11:57:11.000Z</time>
      </trkpt>
      <trkpt lat="42.8562" lon="-0.57474">
        <ele>1955.1</ele>
        <time>2021-01-08T11:57:39.000Z</time>
      </trkpt>
      <trkpt lat="42.85611" lon="-0.57468">
        <ele>1955.9</ele>
        <time>2021-01-08T11:57:56.000Z</time>
      </trkpt>
      <trkpt lat="42.85607" lon="-0.57479">
        <ele>1959.1</ele>
        <time>2021-01-08T11:59:16.000Z</time>
      </trkpt>
      <trkpt lat="42.85607" lon="-0.57492">
        <ele>1962</ele>
        <time>2021-01-08T11:59:35.000Z</time>
      </trkpt>
      <trkpt lat="42.85605" lon="-0.57504">
        <ele>1964.8</ele>
        <time>2021-01-08T11:59:48.000Z</time>
      </trkpt>
      <trkpt lat="42.85608" lon="-0.57516">
        <ele>1967.2</ele>
        <time>2021-01-08T12:00:08.000Z</time>
      </trkpt>
      <trkpt lat="42.856" lon="-0.5751">
        <ele>1971</ele>
        <time>2021-01-08T12:00:32.000Z</time>
      </trkpt>
      <trkpt lat="42.85594" lon="-0.57499">
        <ele>1971.6</ele>
        <time>2021-01-08T12:00:34.000Z</time>
      </trkpt>
      <trkpt lat="42.85587" lon="-0.5749">
        <ele>1973.2</ele>
        <time>2021-01-08T12:00:43.000Z</time>
      </trkpt>
      <trkpt lat="42.8558" lon="-0.57482">
        <ele>1975</ele>
        <time>2021-01-08T12:01:28.000Z</time>
      </trkpt>
      <trkpt lat="42.85568" lon="-0.57475">
        <ele>1976.1</ele>
        <time>2021-01-08T12:01:43.000Z</time>
      </trkpt>
      <trkpt lat="42.8557" lon="-0.57487">
        <ele>1980.4</ele>
        <time>2021-01-08T12:02:08.000Z</time>
      </trkpt>
      <trkpt lat="42.85566" lon="-0.57498">
        <ele>1981.7</ele>
        <time>2021-01-08T12:02:19.000Z</time>
      </trkpt>
      <trkpt lat="42.85561" lon="-0.5751">
        <ele>1982.7</ele>
        <time>2021-01-08T12:05:18.000Z</time>
      </trkpt>
      <trkpt lat="42.85557" lon="-0.57521">
        <ele>1983.4</ele>
        <time>2021-01-08T12:05:28.000Z</time>
      </trkpt>
      <trkpt lat="42.85554" lon="-0.57533">
        <ele>1984.4</ele>
        <time>2021-01-08T12:05:37.000Z</time>
      </trkpt>
      <trkpt lat="42.8555" lon="-0.57545">
        <ele>1984.4</ele>
        <time>2021-01-08T12:05:44.000Z</time>
      </trkpt>
      <trkpt lat="42.85542" lon="-0.57552">
        <ele>1984.3</ele>
        <time>2021-01-08T12:05:54.000Z</time>
      </trkpt>
      <trkpt lat="42.85535" lon="-0.5756">
        <ele>1986.6</ele>
        <time>2021-01-08T12:06:12.000Z</time>
      </trkpt>
      <trkpt lat="42.85531" lon="-0.57571">
        <ele>1988.4</ele>
        <time>2021-01-08T12:06:23.000Z</time>
      </trkpt>
      <trkpt lat="42.85528" lon="-0.57583">
        <ele>1991</ele>
        <time>2021-01-08T12:06:37.000Z</time>
      </trkpt>
      <trkpt lat="42.85518" lon="-0.5758">
        <ele>1992.7</ele>
        <time>2021-01-08T12:06:49.000Z</time>
      </trkpt>
      <trkpt lat="42.85504" lon="-0.57589">
        <ele>1998.3</ele>
        <time>2021-01-08T12:07:40.000Z</time>
      </trkpt>
      <trkpt lat="42.85495" lon="-0.57584">
        <ele>1999</ele>
        <time>2021-01-08T12:07:58.000Z</time>
      </trkpt>
      <trkpt lat="42.85492" lon="-0.57583">
        <ele>2000.3</ele>
        <time>2021-01-08T12:08:45.000Z</time>
      </trkpt>
      <trkpt lat="42.85489" lon="-0.57581">
        <ele>2000.9</ele>
        <time>2021-01-08T12:09:13.000Z</time>
      </trkpt>
      <trkpt lat="42.8549" lon="-0.57582">
        <ele>2001.1</ele>
        <time>2021-01-08T12:09:50.000Z</time>
      </trkpt>
      <trkpt lat="42.85486" lon="-0.57593">
        <ele>2002.9</ele>
        <time>2021-01-08T12:11:27.000Z</time>
      </trkpt>
      <trkpt lat="42.85493" lon="-0.57604">
        <ele>2003.7</ele>
        <time>2021-01-08T12:11:46.000Z</time>
      </trkpt>
      <trkpt lat="42.85501" lon="-0.5761">
        <ele>2005.1</ele>
        <time>2021-01-08T12:11:56.000Z</time>
      </trkpt>
      <trkpt lat="42.8551" lon="-0.57613">
        <ele>2008.9</ele>
        <time>2021-01-08T12:12:17.000Z</time>
      </trkpt>
      <trkpt lat="42.85519" lon="-0.57615">
        <ele>2015.9</ele>
        <time>2021-01-08T12:12:52.000Z</time>
      </trkpt>
      <trkpt lat="42.85528" lon="-0.57619">
        <ele>2018.4</ele>
        <time>2021-01-08T12:13:19.000Z</time>
      </trkpt>
      <trkpt lat="42.85537" lon="-0.5762">
        <ele>2020.7</ele>
        <time>2021-01-08T12:13:33.000Z</time>
      </trkpt>
      <trkpt lat="42.85545" lon="-0.57629">
        <ele>2023.2</ele>
        <time>2021-01-08T12:14:01.000Z</time>
      </trkpt>
      <trkpt lat="42.85554" lon="-0.57628">
        <ele>2027.9</ele>
        <time>2021-01-08T12:14:24.000Z</time>
      </trkpt>
      <trkpt lat="42.85562" lon="-0.57636">
        <ele>2032.1</ele>
        <time>2021-01-08T12:14:44.000Z</time>
      </trkpt>
      <trkpt lat="42.8557" lon="-0.57642">
        <ele>2034.5</ele>
        <time>2021-01-08T12:14:58.000Z</time>
      </trkpt>
      <trkpt lat="42.85578" lon="-0.57648">
        <ele>2035.2</ele>
        <time>2021-01-08T12:15:11.000Z</time>
      </trkpt>
      <trkpt lat="42.85586" lon="-0.57655">
        <ele>2034.6</ele>
        <time>2021-01-08T12:15:19.000Z</time>
      </trkpt>
      <trkpt lat="42.85595" lon="-0.57665">
        <ele>2035</ele>
        <time>2021-01-08T12:15:29.000Z</time>
      </trkpt>
      <trkpt lat="42.85601" lon="-0.57675">
        <ele>2033.9</ele>
        <time>2021-01-08T12:15:37.000Z</time>
      </trkpt>
      <trkpt lat="42.85609" lon="-0.57682">
        <ele>2035.7</ele>
        <time>2021-01-08T12:15:47.000Z</time>
      </trkpt>
      <trkpt lat="42.85618" lon="-0.57689">
        <ele>2035.5</ele>
        <time>2021-01-08T12:15:57.000Z</time>
      </trkpt>
      <trkpt lat="42.85624" lon="-0.57698">
        <ele>2036.2</ele>
        <time>2021-01-08T12:16:31.000Z</time>
      </trkpt>
      <trkpt lat="42.85618" lon="-0.57688">
        <ele>2034.5</ele>
        <time>2021-01-08T12:18:19.000Z</time>
      </trkpt>
      <trkpt lat="42.85619" lon="-0.57684">
        <ele>2006.5</ele>
        <time>2021-01-08T13:01:22.000Z</time>
      </trkpt>
      <trkpt lat="42.8561" lon="-0.57676">
        <ele>2005.8</ele>
        <time>2021-01-08T13:01:28.000Z</time>
      </trkpt>
      <trkpt lat="42.85604" lon="-0.57667">
        <ele>2004.7</ele>
        <time>2021-01-08T13:01:49.000Z</time>
      </trkpt>
      <trkpt lat="42.85596" lon="-0.5766">
        <ele>1963.1</ele>
        <time>2021-01-08T13:10:42.000Z</time>
      </trkpt>
      <trkpt lat="42.85587" lon="-0.57654">
        <ele>1962.4</ele>
        <time>2021-01-08T13:10:49.000Z</time>
      </trkpt>
      <trkpt lat="42.85579" lon="-0.57647">
        <ele>1961.8</ele>
        <time>2021-01-08T13:10:59.000Z</time>
      </trkpt>
      <trkpt lat="42.85569" lon="-0.57642">
        <ele>1961.5</ele>
        <time>2021-01-08T13:11:10.000Z</time>
      </trkpt>
      <trkpt lat="42.85561" lon="-0.57635">
        <ele>1960.2</ele>
        <time>2021-01-08T13:11:15.000Z</time>
      </trkpt>
      <trkpt lat="42.85552" lon="-0.57626">
        <ele>1957.3</ele>
        <time>2021-01-08T13:11:19.000Z</time>
      </trkpt>
      <trkpt lat="42.85541" lon="-0.5762">
        <ele>1953.8</ele>
        <time>2021-01-08T13:11:22.000Z</time>
      </trkpt>
      <trkpt lat="42.85532" lon="-0.57615">
        <ele>1944.8</ele>
        <time>2021-01-08T13:11:34.000Z</time>
      </trkpt>
      <trkpt lat="42.85523" lon="-0.57612">
        <ele>1943</ele>
        <time>2021-01-08T13:11:38.000Z</time>
      </trkpt>
      <trkpt lat="42.85517" lon="-0.57602">
        <ele>1941.5</ele>
        <time>2021-01-08T13:11:41.000Z</time>
      </trkpt>
      <trkpt lat="42.85506" lon="-0.57601">
        <ele>1938.1</ele>
        <time>2021-01-08T13:11:45.000Z</time>
      </trkpt>
      <trkpt lat="42.85495" lon="-0.57596">
        <ele>1934.5</ele>
        <time>2021-01-08T13:11:48.000Z</time>
      </trkpt>
      <trkpt lat="42.85487" lon="-0.57597">
        <ele>1930.3</ele>
        <time>2021-01-08T13:11:51.000Z</time>
      </trkpt>
      <trkpt lat="42.85492" lon="-0.57586">
        <ele>1923.6</ele>
        <time>2021-01-08T13:12:20.000Z</time>
      </trkpt>
      <trkpt lat="42.85503" lon="-0.57583">
        <ele>1922.7</ele>
        <time>2021-01-08T13:12:23.000Z</time>
      </trkpt>
      <trkpt lat="42.85515" lon="-0.57579">
        <ele>1921.6</ele>
        <time>2021-01-08T13:12:25.000Z</time>
      </trkpt>
      <trkpt lat="42.85528" lon="-0.57574">
        <ele>1919.7</ele>
        <time>2021-01-08T13:12:27.000Z</time>
      </trkpt>
      <trkpt lat="42.85539" lon="-0.57569">
        <ele>1917.8</ele>
        <time>2021-01-08T13:12:29.000Z</time>
      </trkpt>
      <trkpt lat="42.85547" lon="-0.57565">
        <ele>1915.8</ele>
        <time>2021-01-08T13:12:31.000Z</time>
      </trkpt>
      <trkpt lat="42.85556" lon="-0.57562">
        <ele>1913.3</ele>
        <time>2021-01-08T13:12:35.000Z</time>
      </trkpt>
      <trkpt lat="42.85563" lon="-0.57553">
        <ele>1908</ele>
        <time>2021-01-08T13:12:48.000Z</time>
      </trkpt>
      <trkpt lat="42.85564" lon="-0.57534">
        <ele>1906.1</ele>
        <time>2021-01-08T13:12:51.000Z</time>
      </trkpt>
      <trkpt lat="42.85565" lon="-0.57519">
        <ele>1904.5</ele>
        <time>2021-01-08T13:12:53.000Z</time>
      </trkpt>
      <trkpt lat="42.85568" lon="-0.57506">
        <ele>1903.5</ele>
        <time>2021-01-08T13:12:55.000Z</time>
      </trkpt>
      <trkpt lat="42.85577" lon="-0.57501">
        <ele>1902.2</ele>
        <time>2021-01-08T13:12:58.000Z</time>
      </trkpt>
      <trkpt lat="42.85587" lon="-0.57495">
        <ele>1899.2</ele>
        <time>2021-01-08T13:13:01.000Z</time>
      </trkpt>
      <trkpt lat="42.85597" lon="-0.57501">
        <ele>1896.2</ele>
        <time>2021-01-08T13:13:04.000Z</time>
      </trkpt>
      <trkpt lat="42.85608" lon="-0.57499">
        <ele>1892.4</ele>
        <time>2021-01-08T13:13:07.000Z</time>
      </trkpt>
      <trkpt lat="42.85617" lon="-0.57503">
        <ele>1889.2</ele>
        <time>2021-01-08T13:13:09.000Z</time>
      </trkpt>
      <trkpt lat="42.85628" lon="-0.57504">
        <ele>1883.4</ele>
        <time>2021-01-08T13:13:13.000Z</time>
      </trkpt>
      <trkpt lat="42.85633" lon="-0.57515">
        <ele>1865.4</ele>
        <time>2021-01-08T13:13:46.000Z</time>
      </trkpt>
      <trkpt lat="42.85642" lon="-0.57514">
        <ele>1862.8</ele>
        <time>2021-01-08T13:13:50.000Z</time>
      </trkpt>
      <trkpt lat="42.85652" lon="-0.57518">
        <ele>1860</ele>
        <time>2021-01-08T13:13:53.000Z</time>
      </trkpt>
      <trkpt lat="42.85661" lon="-0.57524">
        <ele>1857.3</ele>
        <time>2021-01-08T13:13:57.000Z</time>
      </trkpt>
      <trkpt lat="42.85671" lon="-0.57523">
        <ele>1847.5</ele>
        <time>2021-01-08T13:14:15.000Z</time>
      </trkpt>
      <trkpt lat="42.85667" lon="-0.57511">
        <ele>1839.2</ele>
        <time>2021-01-08T13:14:36.000Z</time>
      </trkpt>
      <trkpt lat="42.85676" lon="-0.57501">
        <ele>1832.9</ele>
        <time>2021-01-08T13:14:57.000Z</time>
      </trkpt>
      <trkpt lat="42.85683" lon="-0.57492">
        <ele>1827.8</ele>
        <time>2021-01-08T13:15:04.000Z</time>
      </trkpt>
      <trkpt lat="42.8569" lon="-0.575">
        <ele>1823.2</ele>
        <time>2021-01-08T13:15:23.000Z</time>
      </trkpt>
      <trkpt lat="42.85694" lon="-0.57514">
        <ele>1821</ele>
        <time>2021-01-08T13:15:35.000Z</time>
      </trkpt>
      <trkpt lat="42.85704" lon="-0.57521">
        <ele>1819.2</ele>
        <time>2021-01-08T13:15:39.000Z</time>
      </trkpt>
      <trkpt lat="42.85717" lon="-0.5752">
        <ele>1816.2</ele>
        <time>2021-01-08T13:15:42.000Z</time>
      </trkpt>
      <trkpt lat="42.85725" lon="-0.57524">
        <ele>1812.5</ele>
        <time>2021-01-08T13:15:45.000Z</time>
      </trkpt>
      <trkpt lat="42.85735" lon="-0.57526">
        <ele>1806.4</ele>
        <time>2021-01-08T13:15:52.000Z</time>
      </trkpt>
      <trkpt lat="42.85745" lon="-0.57533">
        <ele>1800</ele>
        <time>2021-01-08T13:16:02.000Z</time>
      </trkpt>
      <trkpt lat="42.85754" lon="-0.57539">
        <ele>1792.7</ele>
        <time>2021-01-08T13:16:26.000Z</time>
      </trkpt>
      <trkpt lat="42.85764" lon="-0.57541">
        <ele>1786</ele>
        <time>2021-01-08T13:16:42.000Z</time>
      </trkpt>
      <trkpt lat="42.85765" lon="-0.57528">
        <ele>1780</ele>
        <time>2021-01-08T13:17:01.000Z</time>
      </trkpt>
      <trkpt lat="42.8577" lon="-0.57516">
        <ele>1778.3</ele>
        <time>2021-01-08T13:17:15.000Z</time>
      </trkpt>
      <trkpt lat="42.85772" lon="-0.57504">
        <ele>1774.8</ele>
        <time>2021-01-08T13:17:22.000Z</time>
      </trkpt>
      <trkpt lat="42.8578" lon="-0.57496">
        <ele>1773</ele>
        <time>2021-01-08T13:17:25.000Z</time>
      </trkpt>
      <trkpt lat="42.85791" lon="-0.5749">
        <ele>1771</ele>
        <time>2021-01-08T13:17:28.000Z</time>
      </trkpt>
      <trkpt lat="42.85799" lon="-0.57483">
        <ele>1767.6</ele>
        <time>2021-01-08T13:17:35.000Z</time>
      </trkpt>
      <trkpt lat="42.85802" lon="-0.57497">
        <ele>1761.1</ele>
        <time>2021-01-08T13:17:49.000Z</time>
      </trkpt>
      <trkpt lat="42.85812" lon="-0.57495">
        <ele>1756.4</ele>
        <time>2021-01-08T13:17:55.000Z</time>
      </trkpt>
      <trkpt lat="42.85808" lon="-0.57507">
        <ele>1752.2</ele>
        <time>2021-01-08T13:17:59.000Z</time>
      </trkpt>
      <trkpt lat="42.85801" lon="-0.57516">
        <ele>1743.3</ele>
        <time>2021-01-08T13:18:24.000Z</time>
      </trkpt>
      <trkpt lat="42.85808" lon="-0.5753">
        <ele>1738.5</ele>
        <time>2021-01-08T13:18:41.000Z</time>
      </trkpt>
      <trkpt lat="42.8582" lon="-0.57524">
        <ele>1736.1</ele>
        <time>2021-01-08T13:18:43.000Z</time>
      </trkpt>
      <trkpt lat="42.85832" lon="-0.57519">
        <ele>1733.9</ele>
        <time>2021-01-08T13:18:45.000Z</time>
      </trkpt>
      <trkpt lat="42.85845" lon="-0.57523">
        <ele>1730</ele>
        <time>2021-01-08T13:18:48.000Z</time>
      </trkpt>
      <trkpt lat="42.85857" lon="-0.5753">
        <ele>1725.1</ele>
        <time>2021-01-08T13:18:53.000Z</time>
      </trkpt>
      <trkpt lat="42.85867" lon="-0.5753">
        <ele>1723.1</ele>
        <time>2021-01-08T13:18:57.000Z</time>
      </trkpt>
      <trkpt lat="42.8587" lon="-0.57518">
        <ele>1717.1</ele>
        <time>2021-01-08T13:19:06.000Z</time>
      </trkpt>
      <trkpt lat="42.85882" lon="-0.5752">
        <ele>1713.1</ele>
        <time>2021-01-08T13:19:14.000Z</time>
      </trkpt>
      <trkpt lat="42.85869" lon="-0.57512">
        <ele>1710.6</ele>
        <time>2021-01-08T13:19:16.000Z</time>
      </trkpt>
      <trkpt lat="42.8586" lon="-0.57509">
        <ele>1709.6</ele>
        <time>2021-01-08T13:19:17.000Z</time>
      </trkpt>
      <trkpt lat="42.85869" lon="-0.57502">
        <ele>1696.2</ele>
        <time>2021-01-08T13:19:32.000Z</time>
      </trkpt>
      <trkpt lat="42.85877" lon="-0.57491">
        <ele>1692.7</ele>
        <time>2021-01-08T13:19:37.000Z</time>
      </trkpt>
      <trkpt lat="42.85886" lon="-0.5749">
        <ele>1689.2</ele>
        <time>2021-01-08T13:19:41.000Z</time>
      </trkpt>
      <trkpt lat="42.85897" lon="-0.57489">
        <ele>1684.9</ele>
        <time>2021-01-08T13:19:44.000Z</time>
      </trkpt>
      <trkpt lat="42.8591" lon="-0.57491">
        <ele>1676</ele>
        <time>2021-01-08T13:19:56.000Z</time>
      </trkpt>
      <trkpt lat="42.85921" lon="-0.57493">
        <ele>1676.1</ele>
        <time>2021-01-08T13:20:00.000Z</time>
      </trkpt>
      <trkpt lat="42.85928" lon="-0.57502">
        <ele>1674</ele>
        <time>2021-01-08T13:20:12.000Z</time>
      </trkpt>
      <trkpt lat="42.85934" lon="-0.57512">
        <ele>1672.3</ele>
        <time>2021-01-08T13:20:22.000Z</time>
      </trkpt>
      <trkpt lat="42.8594" lon="-0.57523">
        <ele>1668.2</ele>
        <time>2021-01-08T13:20:31.000Z</time>
      </trkpt>
      <trkpt lat="42.85949" lon="-0.57517">
        <ele>1667</ele>
        <time>2021-01-08T13:20:32.000Z</time>
      </trkpt>
      <trkpt lat="42.8596" lon="-0.57516">
        <ele>1663.2</ele>
        <time>2021-01-08T13:20:35.000Z</time>
      </trkpt>
      <trkpt lat="42.85968" lon="-0.57521">
        <ele>1660.7</ele>
        <time>2021-01-08T13:20:37.000Z</time>
      </trkpt>
      <trkpt lat="42.85977" lon="-0.57527">
        <ele>1658.3</ele>
        <time>2021-01-08T13:20:39.000Z</time>
      </trkpt>
      <trkpt lat="42.85988" lon="-0.57526">
        <ele>1655.8</ele>
        <time>2021-01-08T13:20:42.000Z</time>
      </trkpt>
      <trkpt lat="42.85997" lon="-0.57529">
        <ele>1652</ele>
        <time>2021-01-08T13:20:48.000Z</time>
      </trkpt>
      <trkpt lat="42.86004" lon="-0.57538">
        <ele>1649.5</ele>
        <time>2021-01-08T13:20:56.000Z</time>
      </trkpt>
      <trkpt lat="42.86014" lon="-0.57537">
        <ele>1644.2</ele>
        <time>2021-01-08T13:21:02.000Z</time>
      </trkpt>
      <trkpt lat="42.86025" lon="-0.57548">
        <ele>1639.8</ele>
        <time>2021-01-08T13:21:05.000Z</time>
      </trkpt>
      <trkpt lat="42.86035" lon="-0.5755">
        <ele>1637.2</ele>
        <time>2021-01-08T13:21:07.000Z</time>
      </trkpt>
      <trkpt lat="42.86042" lon="-0.57543">
        <ele>1634.7</ele>
        <time>2021-01-08T13:21:09.000Z</time>
      </trkpt>
      <trkpt lat="42.86049" lon="-0.57527">
        <ele>1631.5</ele>
        <time>2021-01-08T13:21:12.000Z</time>
      </trkpt>
      <trkpt lat="42.86054" lon="-0.57513">
        <ele>1628.3</ele>
        <time>2021-01-08T13:21:16.000Z</time>
      </trkpt>
      <trkpt lat="42.86062" lon="-0.57504">
        <ele>1624.6</ele>
        <time>2021-01-08T13:21:20.000Z</time>
      </trkpt>
      <trkpt lat="42.86071" lon="-0.575">
        <ele>1618.4</ele>
        <time>2021-01-08T13:21:26.000Z</time>
      </trkpt>
      <trkpt lat="42.86082" lon="-0.5749">
        <ele>1615.2</ele>
        <time>2021-01-08T13:21:29.000Z</time>
      </trkpt>
      <trkpt lat="42.86088" lon="-0.5748">
        <ele>1612.7</ele>
        <time>2021-01-08T13:21:32.000Z</time>
      </trkpt>
      <trkpt lat="42.86096" lon="-0.57468">
        <ele>1607.6</ele>
        <time>2021-01-08T13:21:41.000Z</time>
      </trkpt>
      <trkpt lat="42.86105" lon="-0.57462">
        <ele>1605.5</ele>
        <time>2021-01-08T13:21:44.000Z</time>
      </trkpt>
      <trkpt lat="42.86115" lon="-0.57458">
        <ele>1602.6</ele>
        <time>2021-01-08T13:21:51.000Z</time>
      </trkpt>
      <trkpt lat="42.86124" lon="-0.57452">
        <ele>1601.2</ele>
        <time>2021-01-08T13:21:55.000Z</time>
      </trkpt>
      <trkpt lat="42.86129" lon="-0.57443">
        <ele>1600.6</ele>
        <time>2021-01-08T13:21:57.000Z</time>
      </trkpt>
      <trkpt lat="42.86129" lon="-0.57431">
        <ele>1598</ele>
        <time>2021-01-08T13:22:05.000Z</time>
      </trkpt>
      <trkpt lat="42.86135" lon="-0.57417">
        <ele>1593.7</ele>
        <time>2021-01-08T13:22:10.000Z</time>
      </trkpt>
      <trkpt lat="42.86128" lon="-0.57406">
        <ele>1588.5</ele>
        <time>2021-01-08T13:22:15.000Z</time>
      </trkpt>
      <trkpt lat="42.86133" lon="-0.57391">
        <ele>1583.9</ele>
        <time>2021-01-08T13:22:19.000Z</time>
      </trkpt>
      <trkpt lat="42.86141" lon="-0.57382">
        <ele>1579.4</ele>
        <time>2021-01-08T13:22:23.000Z</time>
      </trkpt>
      <trkpt lat="42.86147" lon="-0.5737">
        <ele>1576.9</ele>
        <time>2021-01-08T13:22:26.000Z</time>
      </trkpt>
      <trkpt lat="42.86156" lon="-0.57365">
        <ele>1572.3</ele>
        <time>2021-01-08T13:22:29.000Z</time>
      </trkpt>
      <trkpt lat="42.86168" lon="-0.57361">
        <ele>1569.1</ele>
        <time>2021-01-08T13:22:32.000Z</time>
      </trkpt>
      <trkpt lat="42.86177" lon="-0.57354">
        <ele>1568</ele>
        <time>2021-01-08T13:22:33.000Z</time>
      </trkpt>
      <trkpt lat="42.86188" lon="-0.57342">
        <ele>1565.9</ele>
        <time>2021-01-08T13:22:35.000Z</time>
      </trkpt>
      <trkpt lat="42.862" lon="-0.57338">
        <ele>1563.2</ele>
        <time>2021-01-08T13:22:37.000Z</time>
      </trkpt>
      <trkpt lat="42.86218" lon="-0.5733">
        <ele>1558</ele>
        <time>2021-01-08T13:22:40.000Z</time>
      </trkpt>
      <trkpt lat="42.86245" lon="-0.57317">
        <ele>1551</ele>
        <time>2021-01-08T13:22:44.000Z</time>
      </trkpt>
      <trkpt lat="42.86257" lon="-0.57309">
        <ele>1547.1</ele>
        <time>2021-01-08T13:22:48.000Z</time>
      </trkpt>
      <trkpt lat="42.8627" lon="-0.57313">
        <ele>1542</ele>
        <time>2021-01-08T13:22:50.000Z</time>
      </trkpt>
      <trkpt lat="42.86294" lon="-0.57326">
        <ele>1537.5</ele>
        <time>2021-01-08T13:22:53.000Z</time>
      </trkpt>
      <trkpt lat="42.86312" lon="-0.57338">
        <ele>1531</ele>
        <time>2021-01-08T13:22:56.000Z</time>
      </trkpt>
      <trkpt lat="42.86324" lon="-0.57353">
        <ele>1528</ele>
        <time>2021-01-08T13:23:00.000Z</time>
      </trkpt>
      <trkpt lat="42.86325" lon="-0.57366">
        <ele>1528</ele>
        <time>2021-01-08T13:23:05.000Z</time>
      </trkpt>
      <trkpt lat="42.86328" lon="-0.57378">
        <ele>1527.1</ele>
        <time>2021-01-08T13:23:10.000Z</time>
      </trkpt>
      <trkpt lat="42.86327" lon="-0.57391">
        <ele>1526.6</ele>
        <time>2021-01-08T13:23:16.000Z</time>
      </trkpt>
      <trkpt lat="42.86327" lon="-0.57403">
        <ele>1525.3</ele>
        <time>2021-01-08T13:23:39.000Z</time>
      </trkpt>
      <trkpt lat="42.86337" lon="-0.57403">
        <ele>1524</ele>
        <time>2021-01-08T13:23:47.000Z</time>
      </trkpt>
      <trkpt lat="42.86356" lon="-0.57404">
        <ele>1523.3</ele>
        <time>2021-01-08T13:23:54.000Z</time>
      </trkpt>
      <trkpt lat="42.86367" lon="-0.57406">
        <ele>1522</ele>
        <time>2021-01-08T13:23:59.000Z</time>
      </trkpt>
      <trkpt lat="42.86376" lon="-0.5741">
        <ele>1520.9</ele>
        <time>2021-01-08T13:24:19.000Z</time>
      </trkpt>
      <trkpt lat="42.86386" lon="-0.5741">
        <ele>1519.5</ele>
        <time>2021-01-08T13:24:32.000Z</time>
      </trkpt>
      <trkpt lat="42.86396" lon="-0.57409">
        <ele>1518.2</ele>
        <time>2021-01-08T13:24:38.000Z</time>
      </trkpt>
      <trkpt lat="42.86406" lon="-0.57411">
        <ele>1517</ele>
        <time>2021-01-08T13:24:46.000Z</time>
      </trkpt>
      <trkpt lat="42.86417" lon="-0.57407">
        <ele>1516.2</ele>
        <time>2021-01-08T13:24:49.000Z</time>
      </trkpt>
      <trkpt lat="42.86427" lon="-0.57399">
        <ele>1515.3</ele>
        <time>2021-01-08T13:24:51.000Z</time>
      </trkpt>
      <trkpt lat="42.86433" lon="-0.5739">
        <ele>1514.4</ele>
        <time>2021-01-08T13:24:53.000Z</time>
      </trkpt>
      <trkpt lat="42.86442" lon="-0.57379">
        <ele>1512.9</ele>
        <time>2021-01-08T13:24:56.000Z</time>
      </trkpt>
      <trkpt lat="42.86451" lon="-0.57369">
        <ele>1510.9</ele>
        <time>2021-01-08T13:24:59.000Z</time>
      </trkpt>
      <trkpt lat="42.8646" lon="-0.5736">
        <ele>1508.1</ele>
        <time>2021-01-08T13:25:02.000Z</time>
      </trkpt>
      <trkpt lat="42.86466" lon="-0.57349">
        <ele>1505.7</ele>
        <time>2021-01-08T13:25:05.000Z</time>
      </trkpt>
      <trkpt lat="42.8647" lon="-0.57337">
        <ele>1503.2</ele>
        <time>2021-01-08T13:25:08.000Z</time>
      </trkpt>
      <trkpt lat="42.86474" lon="-0.57321">
        <ele>1500.6</ele>
        <time>2021-01-08T13:25:11.000Z</time>
      </trkpt>
      <trkpt lat="42.86471" lon="-0.57306">
        <ele>1496.4</ele>
        <time>2021-01-08T13:25:14.000Z</time>
      </trkpt>
      <trkpt lat="42.86473" lon="-0.57292">
        <ele>1492.3</ele>
        <time>2021-01-08T13:25:17.000Z</time>
      </trkpt>
      <trkpt lat="42.86468" lon="-0.57275">
        <ele>1488.2</ele>
        <time>2021-01-08T13:25:20.000Z</time>
      </trkpt>
      <trkpt lat="42.86467" lon="-0.57261">
        <ele>1483.2</ele>
        <time>2021-01-08T13:25:23.000Z</time>
      </trkpt>
      <trkpt lat="42.86474" lon="-0.5727">
        <ele>1474.8</ele>
        <time>2021-01-08T13:26:11.000Z</time>
      </trkpt>
      <trkpt lat="42.86482" lon="-0.57265">
        <ele>1474</ele>
        <time>2021-01-08T13:26:15.000Z</time>
      </trkpt>
      <trkpt lat="42.86491" lon="-0.57258">
        <ele>1472.9</ele>
        <time>2021-01-08T13:26:18.000Z</time>
      </trkpt>
      <trkpt lat="42.86499" lon="-0.57248">
        <ele>1471.6</ele>
        <time>2021-01-08T13:26:21.000Z</time>
      </trkpt>
      <trkpt lat="42.86509" lon="-0.57241">
        <ele>1468.9</ele>
        <time>2021-01-08T13:26:25.000Z</time>
      </trkpt>
      <trkpt lat="42.86515" lon="-0.57229">
        <ele>1463.8</ele>
        <time>2021-01-08T13:26:32.000Z</time>
      </trkpt>
      <trkpt lat="42.86523" lon="-0.57209">
        <ele>1458.6</ele>
        <time>2021-01-08T13:26:37.000Z</time>
      </trkpt>
      <trkpt lat="42.86529" lon="-0.57198">
        <ele>1453.1</ele>
        <time>2021-01-08T13:26:47.000Z</time>
      </trkpt>
      <trkpt lat="42.86521" lon="-0.57188">
        <ele>1449.8</ele>
        <time>2021-01-08T13:26:52.000Z</time>
      </trkpt>
      <trkpt lat="42.86524" lon="-0.57169">
        <ele>1444.6</ele>
        <time>2021-01-08T13:26:58.000Z</time>
      </trkpt>
      <trkpt lat="42.86517" lon="-0.57158">
        <ele>1442</ele>
        <time>2021-01-08T13:27:00.000Z</time>
      </trkpt>
      <trkpt lat="42.86522" lon="-0.57147">
        <ele>1439.5</ele>
        <time>2021-01-08T13:27:02.000Z</time>
      </trkpt>
      <trkpt lat="42.86529" lon="-0.5714">
        <ele>1429.6</ele>
        <time>2021-01-08T13:27:27.000Z</time>
      </trkpt>
      <trkpt lat="42.86538" lon="-0.57145">
        <ele>1429</ele>
        <time>2021-01-08T13:27:36.000Z</time>
      </trkpt>
      <trkpt lat="42.86548" lon="-0.57146">
        <ele>1428.1</ele>
        <time>2021-01-08T13:27:45.000Z</time>
      </trkpt>
      <trkpt lat="42.86556" lon="-0.57143">
        <ele>1429.1</ele>
        <time>2021-01-08T13:28:22.000Z</time>
      </trkpt>
      <trkpt lat="42.86565" lon="-0.57136">
        <ele>1429.2</ele>
        <time>2021-01-08T13:28:59.000Z</time>
      </trkpt>
      <trkpt lat="42.86574" lon="-0.57132">
        <ele>1429.3</ele>
        <time>2021-01-08T13:29:33.000Z</time>
      </trkpt>
      <trkpt lat="42.86577" lon="-0.57144">
        <ele>1430.5</ele>
        <time>2021-01-08T13:30:04.000Z</time>
      </trkpt>
      <trkpt lat="42.86587" lon="-0.57144">
        <ele>1430.4</ele>
        <time>2021-01-08T13:30:14.000Z</time>
      </trkpt>
      <trkpt lat="42.86597" lon="-0.57143">
        <ele>1430.2</ele>
        <time>2021-01-08T13:30:21.000Z</time>
      </trkpt>
      <trkpt lat="42.86605" lon="-0.57136">
        <ele>1430.9</ele>
        <time>2021-01-08T13:30:54.000Z</time>
      </trkpt>
      <trkpt lat="42.86612" lon="-0.57144">
        <ele>1430.5</ele>
        <time>2021-01-08T13:31:18.000Z</time>
      </trkpt>
      <trkpt lat="42.86621" lon="-0.5715">
        <ele>1430.5</ele>
        <time>2021-01-08T13:31:29.000Z</time>
      </trkpt>
      <trkpt lat="42.86629" lon="-0.57143">
        <ele>1430.5</ele>
        <time>2021-01-08T13:31:37.000Z</time>
      </trkpt>
      <trkpt lat="42.86635" lon="-0.57132">
        <ele>1429.8</ele>
        <time>2021-01-08T13:32:10.000Z</time>
      </trkpt>
      <trkpt lat="42.86644" lon="-0.57135">
        <ele>1429.2</ele>
        <time>2021-01-08T13:32:35.000Z</time>
      </trkpt>
      <trkpt lat="42.86653" lon="-0.5714">
        <ele>1428.4</ele>
        <time>2021-01-08T13:32:47.000Z</time>
      </trkpt>
      <trkpt lat="42.86661" lon="-0.57146">
        <ele>1427</ele>
        <time>2021-01-08T13:32:59.000Z</time>
      </trkpt>
      <trkpt lat="42.8667" lon="-0.57143">
        <ele>1426.7</ele>
        <time>2021-01-08T13:33:14.000Z</time>
      </trkpt>
      <trkpt lat="42.86677" lon="-0.57135">
        <ele>1428.9</ele>
        <time>2021-01-08T13:33:49.000Z</time>
      </trkpt>
      <trkpt lat="42.86671" lon="-0.57146">
        <ele>1426.1</ele>
        <time>2021-01-08T13:34:11.000Z</time>
      </trkpt>
      <trkpt lat="42.86678" lon="-0.57155">
        <ele>1426</ele>
        <time>2021-01-08T13:34:19.000Z</time>
      </trkpt>
      <trkpt lat="42.86685" lon="-0.57169">
        <ele>1424.6</ele>
        <time>2021-01-08T13:34:22.000Z</time>
      </trkpt>
      <trkpt lat="42.86692" lon="-0.57178">
        <ele>1423.1</ele>
        <time>2021-01-08T13:34:25.000Z</time>
      </trkpt>
      <trkpt lat="42.86697" lon="-0.57189">
        <ele>1421.6</ele>
        <time>2021-01-08T13:34:34.000Z</time>
      </trkpt>
      <trkpt lat="42.86705" lon="-0.57196">
        <ele>1421.4</ele>
        <time>2021-01-08T13:34:47.000Z</time>
      </trkpt>
      <trkpt lat="42.86714" lon="-0.57196">
        <ele>1421.6</ele>
        <time>2021-01-08T13:34:57.000Z</time>
      </trkpt>
      <trkpt lat="42.86724" lon="-0.57196">
        <ele>1421.7</ele>
        <time>2021-01-08T13:35:10.000Z</time>
      </trkpt>
      <trkpt lat="42.86732" lon="-0.57192">
        <ele>1422.1</ele>
        <time>2021-01-08T13:35:29.000Z</time>
      </trkpt>
      <trkpt lat="42.86741" lon="-0.57187">
        <ele>1423</ele>
        <time>2021-01-08T13:35:52.000Z</time>
      </trkpt>
      <trkpt lat="42.8675" lon="-0.57182">
        <ele>1423.6</ele>
        <time>2021-01-08T13:36:09.000Z</time>
      </trkpt>
      <trkpt lat="42.86761" lon="-0.57181">
        <ele>1423</ele>
        <time>2021-01-08T13:36:18.000Z</time>
      </trkpt>
      <trkpt lat="42.8677" lon="-0.57179">
        <ele>1422.3</ele>
        <time>2021-01-08T13:36:21.000Z</time>
      </trkpt>
      <trkpt lat="42.86778" lon="-0.57174">
        <ele>1421.6</ele>
        <time>2021-01-08T13:36:24.000Z</time>
      </trkpt>
      <trkpt lat="42.86788" lon="-0.5717">
        <ele>1420.2</ele>
        <time>2021-01-08T13:36:29.000Z</time>
      </trkpt>
      <trkpt lat="42.86799" lon="-0.57171">
        <ele>1419.4</ele>
        <time>2021-01-08T13:36:32.000Z</time>
      </trkpt>
      <trkpt lat="42.86807" lon="-0.57176">
        <ele>1415.5</ele>
        <time>2021-01-08T13:36:43.000Z</time>
      </trkpt>
      <trkpt lat="42.86818" lon="-0.5718">
        <ele>1414.5</ele>
        <time>2021-01-08T13:36:46.000Z</time>
      </trkpt>
      <trkpt lat="42.86823" lon="-0.5719">
        <ele>1413.3</ele>
        <time>2021-01-08T13:36:48.000Z</time>
      </trkpt>
      <trkpt lat="42.86835" lon="-0.57198">
        <ele>1410</ele>
        <time>2021-01-08T13:36:51.000Z</time>
      </trkpt>
      <trkpt lat="42.86845" lon="-0.572">
        <ele>1405.6</ele>
        <time>2021-01-08T13:36:54.000Z</time>
      </trkpt>
      <trkpt lat="42.86853" lon="-0.57193">
        <ele>1400.9</ele>
        <time>2021-01-08T13:36:58.000Z</time>
      </trkpt>
      <trkpt lat="42.86862" lon="-0.57188">
        <ele>1396.8</ele>
        <time>2021-01-08T13:37:03.000Z</time>
      </trkpt>
      <trkpt lat="42.86869" lon="-0.57177">
        <ele>1391.5</ele>
        <time>2021-01-08T13:37:13.000Z</time>
      </trkpt>
      <trkpt lat="42.86867" lon="-0.57164">
        <ele>1388.6</ele>
        <time>2021-01-08T13:37:23.000Z</time>
      </trkpt>
      <trkpt lat="42.8687" lon="-0.5715">
        <ele>1386.8</ele>
        <time>2021-01-08T13:37:30.000Z</time>
      </trkpt>
      <trkpt lat="42.86872" lon="-0.57135">
        <ele>1385.7</ele>
        <time>2021-01-08T13:37:34.000Z</time>
      </trkpt>
      <trkpt lat="42.86877" lon="-0.57122">
        <ele>1383.8</ele>
        <time>2021-01-08T13:37:39.000Z</time>
      </trkpt>
      <trkpt lat="42.86883" lon="-0.57112">
        <ele>1381.4</ele>
        <time>2021-01-08T13:37:42.000Z</time>
      </trkpt>
      <trkpt lat="42.86888" lon="-0.57098">
        <ele>1377.8</ele>
        <time>2021-01-08T13:37:46.000Z</time>
      </trkpt>
      <trkpt lat="42.86887" lon="-0.57085">
        <ele>1376.1</ele>
        <time>2021-01-08T13:37:48.000Z</time>
      </trkpt>
      <trkpt lat="42.86887" lon="-0.57073">
        <ele>1374.8</ele>
        <time>2021-01-08T13:37:50.000Z</time>
      </trkpt>
      <trkpt lat="42.86888" lon="-0.57059">
        <ele>1371.7</ele>
        <time>2021-01-08T13:37:53.000Z</time>
      </trkpt>
      <trkpt lat="42.86892" lon="-0.57047">
        <ele>1368.2</ele>
        <time>2021-01-08T13:37:55.000Z</time>
      </trkpt>
      <trkpt lat="42.869" lon="-0.57035">
        <ele>1364.7</ele>
        <time>2021-01-08T13:37:57.000Z</time>
      </trkpt>
      <trkpt lat="42.86906" lon="-0.57023">
        <ele>1360.9</ele>
        <time>2021-01-08T13:37:59.000Z</time>
      </trkpt>
      <trkpt lat="42.86913" lon="-0.5701">
        <ele>1354.1</ele>
        <time>2021-01-08T13:38:03.000Z</time>
      </trkpt>
      <trkpt lat="42.86907" lon="-0.57">
        <ele>1346.7</ele>
        <time>2021-01-08T13:38:18.000Z</time>
      </trkpt>
      <trkpt lat="42.86902" lon="-0.56985">
        <ele>1345.9</ele>
        <time>2021-01-08T13:38:23.000Z</time>
      </trkpt>
      <trkpt lat="42.86899" lon="-0.56972">
        <ele>1344.3</ele>
        <time>2021-01-08T13:38:28.000Z</time>
      </trkpt>
      <trkpt lat="42.86901" lon="-0.56959">
        <ele>1342.3</ele>
        <time>2021-01-08T13:38:55.000Z</time>
      </trkpt>
      <trkpt lat="42.86898" lon="-0.56948">
        <ele>1341.5</ele>
        <time>2021-01-08T13:39:05.000Z</time>
      </trkpt>
      <trkpt lat="42.8689" lon="-0.56941">
        <ele>1340.5</ele>
        <time>2021-01-08T13:39:09.000Z</time>
      </trkpt>
      <trkpt lat="42.86879" lon="-0.56937">
        <ele>1338.3</ele>
        <time>2021-01-08T13:39:13.000Z</time>
      </trkpt>
      <trkpt lat="42.8687" lon="-0.56936">
        <ele>1336.4</ele>
        <time>2021-01-08T13:39:18.000Z</time>
      </trkpt>
      <trkpt lat="42.86868" lon="-0.56923">
        <ele>1334.3</ele>
        <time>2021-01-08T13:39:39.000Z</time>
      </trkpt>
      <trkpt lat="42.86879" lon="-0.56916">
        <ele>1332.8</ele>
        <time>2021-01-08T13:39:42.000Z</time>
      </trkpt>
      <trkpt lat="42.86889" lon="-0.56908">
        <ele>1330.3</ele>
        <time>2021-01-08T13:39:45.000Z</time>
      </trkpt>
      <trkpt lat="42.869" lon="-0.569">
        <ele>1328.1</ele>
        <time>2021-01-08T13:39:49.000Z</time>
      </trkpt>
      <trkpt lat="42.86905" lon="-0.56889">
        <ele>1324.2</ele>
        <time>2021-01-08T13:39:54.000Z</time>
      </trkpt>
      <trkpt lat="42.86911" lon="-0.5688">
        <ele>1318.8</ele>
        <time>2021-01-08T13:40:00.000Z</time>
      </trkpt>
      <trkpt lat="42.86915" lon="-0.56866">
        <ele>1314.7</ele>
        <time>2021-01-08T13:40:10.000Z</time>
      </trkpt>
      <trkpt lat="42.86907" lon="-0.56858">
        <ele>1310.5</ele>
        <time>2021-01-08T13:40:16.000Z</time>
      </trkpt>
      <trkpt lat="42.86912" lon="-0.56848">
        <ele>1309.7</ele>
        <time>2021-01-08T13:40:19.000Z</time>
      </trkpt>
      <trkpt lat="42.86907" lon="-0.56837">
        <ele>1305.6</ele>
        <time>2021-01-08T13:40:22.000Z</time>
      </trkpt>
      <trkpt lat="42.86912" lon="-0.56827">
        <ele>1296.3</ele>
        <time>2021-01-08T13:40:34.000Z</time>
      </trkpt>
      <trkpt lat="42.86923" lon="-0.56826">
        <ele>1292.4</ele>
        <time>2021-01-08T13:40:46.000Z</time>
      </trkpt>
      <trkpt lat="42.86932" lon="-0.56821">
        <ele>1289.6</ele>
        <time>2021-01-08T13:40:51.000Z</time>
      </trkpt>
      <trkpt lat="42.8694" lon="-0.56816">
        <ele>1285.8</ele>
        <time>2021-01-08T13:41:02.000Z</time>
      </trkpt>
      <trkpt lat="42.86949" lon="-0.56808">
        <ele>1281</ele>
        <time>2021-01-08T13:41:14.000Z</time>
      </trkpt>
      <trkpt lat="42.8696" lon="-0.56802">
        <ele>1278.8</ele>
        <time>2021-01-08T13:41:18.000Z</time>
      </trkpt>
      <trkpt lat="42.86971" lon="-0.56799">
        <ele>1275.8</ele>
        <time>2021-01-08T13:41:22.000Z</time>
      </trkpt>
      <trkpt lat="42.86981" lon="-0.56794">
        <ele>1272.6</ele>
        <time>2021-01-08T13:41:26.000Z</time>
      </trkpt>
      <trkpt lat="42.86982" lon="-0.56782">
        <ele>1262.9</ele>
        <time>2021-01-08T13:41:43.000Z</time>
      </trkpt>
      <trkpt lat="42.86978" lon="-0.5677">
        <ele>1257.1</ele>
        <time>2021-01-08T13:41:57.000Z</time>
      </trkpt>
      <trkpt lat="42.86985" lon="-0.56759">
        <ele>1251.1</ele>
        <time>2021-01-08T13:42:16.000Z</time>
      </trkpt>
      <trkpt lat="42.86977" lon="-0.56752">
        <ele>1248.5</ele>
        <time>2021-01-08T13:42:20.000Z</time>
      </trkpt>
      <trkpt lat="42.86976" lon="-0.56739">
        <ele>1243.1</ele>
        <time>2021-01-08T13:42:26.000Z</time>
      </trkpt>
      <trkpt lat="42.8697" lon="-0.56726">
        <ele>1237.7</ele>
        <time>2021-01-08T13:42:31.000Z</time>
      </trkpt>
      <trkpt lat="42.8696" lon="-0.56719">
        <ele>1233.7</ele>
        <time>2021-01-08T13:42:35.000Z</time>
      </trkpt>
      <trkpt lat="42.86958" lon="-0.56706">
        <ele>1230</ele>
        <time>2021-01-08T13:42:38.000Z</time>
      </trkpt>
      <trkpt lat="42.86956" lon="-0.56692">
        <ele>1224.5</ele>
        <time>2021-01-08T13:42:42.000Z</time>
      </trkpt>
      <trkpt lat="42.86966" lon="-0.56692">
        <ele>1219.7</ele>
        <time>2021-01-08T13:42:57.000Z</time>
      </trkpt>
      <trkpt lat="42.86973" lon="-0.56683">
        <ele>1218.7</ele>
        <time>2021-01-08T13:43:02.000Z</time>
      </trkpt>
      <trkpt lat="42.8698" lon="-0.56675">
        <ele>1217.1</ele>
        <time>2021-01-08T13:43:05.000Z</time>
      </trkpt>
      <trkpt lat="42.86987" lon="-0.56667">
        <ele>1215.8</ele>
        <time>2021-01-08T13:43:08.000Z</time>
      </trkpt>
      <trkpt lat="42.86999" lon="-0.5666">
        <ele>1210.9</ele>
        <time>2021-01-08T13:43:13.000Z</time>
      </trkpt>
      <trkpt lat="42.86998" lon="-0.56642">
        <ele>1203.1</ele>
        <time>2021-01-08T13:43:17.000Z</time>
      </trkpt>
      <trkpt lat="42.8699" lon="-0.56633">
        <ele>1199.2</ele>
        <time>2021-01-08T13:43:19.000Z</time>
      </trkpt>
      <trkpt lat="42.86984" lon="-0.56623">
        <ele>1188</ele>
        <time>2021-01-08T13:43:24.000Z</time>
      </trkpt>
      <trkpt lat="42.86994" lon="-0.56621">
        <ele>1182.2</ele>
        <time>2021-01-08T13:43:52.000Z</time>
      </trkpt>
      <trkpt lat="42.87001" lon="-0.56612">
        <ele>1181.1</ele>
        <time>2021-01-08T13:43:55.000Z</time>
      </trkpt>
      <trkpt lat="42.86998" lon="-0.56598">
        <ele>1178.5</ele>
        <time>2021-01-08T13:43:58.000Z</time>
      </trkpt>
      <trkpt lat="42.87005" lon="-0.56589">
        <ele>1174.5</ele>
        <time>2021-01-08T13:44:00.000Z</time>
      </trkpt>
      <trkpt lat="42.87004" lon="-0.56572">
        <ele>1168.9</ele>
        <time>2021-01-08T13:44:03.000Z</time>
      </trkpt>
      <trkpt lat="42.87001" lon="-0.56556">
        <ele>1162.3</ele>
        <time>2021-01-08T13:44:06.000Z</time>
      </trkpt>
      <trkpt lat="42.86998" lon="-0.56539">
        <ele>1155.8</ele>
        <time>2021-01-08T13:44:09.000Z</time>
      </trkpt>
      <trkpt lat="42.86992" lon="-0.5653">
        <ele>1151.2</ele>
        <time>2021-01-08T13:44:11.000Z</time>
      </trkpt>
      <trkpt lat="42.86992" lon="-0.56516">
        <ele>1145.2</ele>
        <time>2021-01-08T13:44:14.000Z</time>
      </trkpt>
      <trkpt lat="42.86988" lon="-0.56502">
        <ele>1138.7</ele>
        <time>2021-01-08T13:44:17.000Z</time>
      </trkpt>
      <trkpt lat="42.86996" lon="-0.56506">
        <ele>1127.1</ele>
        <time>2021-01-08T13:44:27.000Z</time>
      </trkpt>
      <trkpt lat="42.87005" lon="-0.56501">
        <ele>1125.6</ele>
        <time>2021-01-08T13:44:35.000Z</time>
      </trkpt>
      <trkpt lat="42.87015" lon="-0.56494">
        <ele>1123.7</ele>
        <time>2021-01-08T13:44:40.000Z</time>
      </trkpt>
      <trkpt lat="42.87024" lon="-0.5649">
        <ele>1121.9</ele>
        <time>2021-01-08T13:44:43.000Z</time>
      </trkpt>
      <trkpt lat="42.87032" lon="-0.56485">
        <ele>1119.3</ele>
        <time>2021-01-08T13:44:47.000Z</time>
      </trkpt>
      <trkpt lat="42.87043" lon="-0.56479">
        <ele>1117.2</ele>
        <time>2021-01-08T13:44:51.000Z</time>
      </trkpt>
      <trkpt lat="42.87044" lon="-0.56465">
        <ele>1113.6</ele>
        <time>2021-01-08T13:44:54.000Z</time>
      </trkpt>
      <trkpt lat="42.87047" lon="-0.56453">
        <ele>1110.8</ele>
        <time>2021-01-08T13:44:56.000Z</time>
      </trkpt>
      <trkpt lat="42.87041" lon="-0.56439">
        <ele>1105.1</ele>
        <time>2021-01-08T13:44:59.000Z</time>
      </trkpt>
      <trkpt lat="42.87045" lon="-0.56423">
        <ele>1099.1</ele>
        <time>2021-01-08T13:45:02.000Z</time>
      </trkpt>
      <trkpt lat="42.87034" lon="-0.56414">
        <ele>1092.9</ele>
        <time>2021-01-08T13:45:05.000Z</time>
      </trkpt>
      <trkpt lat="42.8703" lon="-0.564">
        <ele>1081.8</ele>
        <time>2021-01-08T13:45:12.000Z</time>
      </trkpt>
      <trkpt lat="42.87027" lon="-0.56388">
        <ele>1056.8</ele>
        <time>2021-01-08T13:45:30.000Z</time>
      </trkpt>
      <trkpt lat="42.87024" lon="-0.56371">
        <ele>1064.8</ele>
        <time>2021-01-08T13:45:57.000Z</time>
      </trkpt>
      <trkpt lat="42.87029" lon="-0.56357">
        <ele>1061.7</ele>
        <time>2021-01-08T13:45:59.000Z</time>
      </trkpt>
      <trkpt lat="42.87021" lon="-0.56347">
        <ele>1055.3</ele>
        <time>2021-01-08T13:46:02.000Z</time>
      </trkpt>
      <trkpt lat="42.87028" lon="-0.56337">
        <ele>1050.1</ele>
        <time>2021-01-08T13:46:05.000Z</time>
      </trkpt>
      <trkpt lat="42.87036" lon="-0.5633">
        <ele>1046.6</ele>
        <time>2021-01-08T13:46:07.000Z</time>
      </trkpt>
      <trkpt lat="42.87044" lon="-0.56323">
        <ele>1043.7</ele>
        <time>2021-01-08T13:46:09.000Z</time>
      </trkpt>
      <trkpt lat="42.87054" lon="-0.56315">
        <ele>1039.4</ele>
        <time>2021-01-08T13:46:12.000Z</time>
      </trkpt>
      <trkpt lat="42.87065" lon="-0.5631">
        <ele>1036.3</ele>
        <time>2021-01-08T13:46:15.000Z</time>
      </trkpt>
      <trkpt lat="42.87076" lon="-0.56302">
        <ele>1033.4</ele>
        <time>2021-01-08T13:46:19.000Z</time>
      </trkpt>
      <trkpt lat="42.8707" lon="-0.56292">
        <ele>1026.5</ele>
        <time>2021-01-08T13:46:38.000Z</time>
      </trkpt>
      <trkpt lat="42.87069" lon="-0.56276">
        <ele>1022.4</ele>
        <time>2021-01-08T13:46:42.000Z</time>
      </trkpt>
      <trkpt lat="42.87061" lon="-0.5627">
        <ele>1015.4</ele>
        <time>2021-01-08T13:46:48.000Z</time>
      </trkpt>
      <trkpt lat="42.87051" lon="-0.56269">
        <ele>1012.1</ele>
        <time>2021-01-08T13:46:54.000Z</time>
      </trkpt>
      <trkpt lat="42.87061" lon="-0.56269">
        <ele>1007.9</ele>
        <time>2021-01-08T13:47:18.000Z</time>
      </trkpt>
      <trkpt lat="42.87064" lon="-0.56255">
        <ele>1005</ele>
        <time>2021-01-08T13:47:23.000Z</time>
      </trkpt>
      <trkpt lat="42.87069" lon="-0.56243">
        <ele>1001.1</ele>
        <time>2021-01-08T13:47:27.000Z</time>
      </trkpt>
      <trkpt lat="42.87063" lon="-0.5623">
        <ele>997.4</ele>
        <time>2021-01-08T13:47:30.000Z</time>
      </trkpt>
      <trkpt lat="42.87058" lon="-0.5622">
        <ele>994.6</ele>
        <time>2021-01-08T13:47:33.000Z</time>
      </trkpt>
      <trkpt lat="42.87059" lon="-0.56206">
        <ele>988.4</ele>
        <time>2021-01-08T13:47:39.000Z</time>
      </trkpt>
      <trkpt lat="42.87058" lon="-0.56193">
        <ele>974.1</ele>
        <time>2021-01-08T13:48:01.000Z</time>
      </trkpt>
      <trkpt lat="42.87067" lon="-0.56193">
        <ele>968.4</ele>
        <time>2021-01-08T13:48:19.000Z</time>
      </trkpt>
      <trkpt lat="42.87068" lon="-0.56177">
        <ele>965.7</ele>
        <time>2021-01-08T13:48:23.000Z</time>
      </trkpt>
      <trkpt lat="42.87067" lon="-0.56161">
        <ele>960.4</ele>
        <time>2021-01-08T13:48:27.000Z</time>
      </trkpt>
      <trkpt lat="42.87072" lon="-0.56149">
        <ele>953.9</ele>
        <time>2021-01-08T13:48:32.000Z</time>
      </trkpt>
      <trkpt lat="42.87081" lon="-0.56145">
        <ele>947.6</ele>
        <time>2021-01-08T13:48:36.000Z</time>
      </trkpt>
      <trkpt lat="42.87091" lon="-0.56137">
        <ele>939.3</ele>
        <time>2021-01-08T13:48:41.000Z</time>
      </trkpt>
      <trkpt lat="42.87089" lon="-0.56121">
        <ele>932.4</ele>
        <time>2021-01-08T13:48:45.000Z</time>
      </trkpt>
      <trkpt lat="42.87093" lon="-0.56106">
        <ele>923.5</ele>
        <time>2021-01-08T13:48:50.000Z</time>
      </trkpt>
      <trkpt lat="42.87088" lon="-0.56096">
        <ele>913.6</ele>
        <time>2021-01-08T13:49:02.000Z</time>
      </trkpt>
      <trkpt lat="42.87085" lon="-0.56082">
        <ele>907.7</ele>
        <time>2021-01-08T13:49:15.000Z</time>
      </trkpt>
      <trkpt lat="42.87091" lon="-0.5607">
        <ele>903.4</ele>
        <time>2021-01-08T13:49:21.000Z</time>
      </trkpt>
      <trkpt lat="42.87086" lon="-0.56058">
        <ele>899.5</ele>
        <time>2021-01-08T13:49:24.000Z</time>
      </trkpt>
      <trkpt lat="42.87093" lon="-0.56049">
        <ele>889.2</ele>
        <time>2021-01-08T13:49:32.000Z</time>
      </trkpt>
      <trkpt lat="42.87097" lon="-0.56034">
        <ele>883.5</ele>
        <time>2021-01-08T13:49:37.000Z</time>
      </trkpt>
      <trkpt lat="42.87095" lon="-0.5602">
        <ele>871.6</ele>
        <time>2021-01-08T13:49:54.000Z</time>
      </trkpt>
      <trkpt lat="42.87089" lon="-0.5601">
        <ele>868.3</ele>
        <time>2021-01-08T13:49:59.000Z</time>
      </trkpt>
      <trkpt lat="42.87081" lon="-0.56002">
        <ele>864.8</ele>
        <time>2021-01-08T13:50:08.000Z</time>
      </trkpt>
      <trkpt lat="42.8707" lon="-0.56003">
        <ele>862.7</ele>
        <time>2021-01-08T13:50:16.000Z</time>
      </trkpt>
      <trkpt lat="42.87064" lon="-0.55994">
        <ele>861</ele>
        <time>2021-01-08T13:50:33.000Z</time>
      </trkpt>
      <trkpt lat="42.87059" lon="-0.55983">
        <ele>858.9</ele>
        <time>2021-01-08T13:50:39.000Z</time>
      </trkpt>
      <trkpt lat="42.87055" lon="-0.55972">
        <ele>854.3</ele>
        <time>2021-01-08T13:50:58.000Z</time>
      </trkpt>
      <trkpt lat="42.87066" lon="-0.55971">
        <ele>852.6</ele>
        <time>2021-01-08T13:51:14.000Z</time>
      </trkpt>
      <trkpt lat="42.87074" lon="-0.55977">
        <ele>850.9</ele>
        <time>2021-01-08T13:51:18.000Z</time>
      </trkpt>
      <trkpt lat="42.87084" lon="-0.55974">
        <ele>847.1</ele>
        <time>2021-01-08T13:51:28.000Z</time>
      </trkpt>
      <trkpt lat="42.87092" lon="-0.55964">
        <ele>844.5</ele>
        <time>2021-01-08T13:51:34.000Z</time>
      </trkpt>
      <trkpt lat="42.87101" lon="-0.55964">
        <ele>841.5</ele>
        <time>2021-01-08T13:51:38.000Z</time>
      </trkpt>
      <trkpt lat="42.87112" lon="-0.55965">
        <ele>839.2</ele>
        <time>2021-01-08T13:51:41.000Z</time>
      </trkpt>
      <trkpt lat="42.87121" lon="-0.5597">
        <ele>836.9</ele>
        <time>2021-01-08T13:51:44.000Z</time>
      </trkpt>
      <trkpt lat="42.87131" lon="-0.55976">
        <ele>833.8</ele>
        <time>2021-01-08T13:51:48.000Z</time>
      </trkpt>
      <trkpt lat="42.8714" lon="-0.55978">
        <ele>827.2</ele>
        <time>2021-01-08T13:52:03.000Z</time>
      </trkpt>
      <trkpt lat="42.87149" lon="-0.55975">
        <ele>824.5</ele>
        <time>2021-01-08T13:52:24.000Z</time>
      </trkpt>
      <trkpt lat="42.87161" lon="-0.55975">
        <ele>821.7</ele>
        <time>2021-01-08T13:52:31.000Z</time>
      </trkpt>
      <trkpt lat="42.87172" lon="-0.55976">
        <ele>818.2</ele>
        <time>2021-01-08T13:52:38.000Z</time>
      </trkpt>
      <trkpt lat="42.87182" lon="-0.55975">
        <ele>815</ele>
        <time>2021-01-08T13:52:45.000Z</time>
      </trkpt>
      <trkpt lat="42.87191" lon="-0.55974">
        <ele>810.2</ele>
        <time>2021-01-08T13:52:55.000Z</time>
      </trkpt>
      <trkpt lat="42.872" lon="-0.55979">
        <ele>808.9</ele>
        <time>2021-01-08T13:54:05.000Z</time>
      </trkpt>
      <trkpt lat="42.87206" lon="-0.5597">
        <ele>808.6</ele>
        <time>2021-01-08T13:54:49.000Z</time>
      </trkpt>
      <trkpt lat="42.87216" lon="-0.55976">
        <ele>808.3</ele>
        <time>2021-01-08T13:54:54.000Z</time>
      </trkpt>
      <trkpt lat="42.87206" lon="-0.55975">
        <ele>808.6</ele>
        <time>2021-01-08T13:55:01.000Z</time>
      </trkpt>
      <trkpt lat="42.87197" lon="-0.55973">
        <ele>807.6</ele>
        <time>2021-01-08T13:55:16.000Z</time>
      </trkpt>
      <trkpt lat="42.87207" lon="-0.55967">
        <ele>806</ele>
        <time>2021-01-08T13:55:33.000Z</time>
      </trkpt>
      <trkpt lat="42.8721" lon="-0.55954">
        <ele>805.1</ele>
        <time>2021-01-08T13:55:37.000Z</time>
      </trkpt>
      <trkpt lat="42.87209" lon="-0.55941">
        <ele>804.7</ele>
        <time>2021-01-08T13:55:45.000Z</time>
      </trkpt>
      <trkpt lat="42.87208" lon="-0.55927">
        <ele>804.6</ele>
        <time>2021-01-08T13:55:50.000Z</time>
      </trkpt>
      <trkpt lat="42.87206" lon="-0.55913">
        <ele>806</ele>
        <time>2021-01-08T13:55:54.000Z</time>
      </trkpt>
      <trkpt lat="42.87205" lon="-0.55901">
        <ele>804.8</ele>
        <time>2021-01-08T13:55:58.000Z</time>
      </trkpt>
      <trkpt lat="42.87202" lon="-0.55888">
        <ele>803.6</ele>
        <time>2021-01-08T13:56:04.000Z</time>
      </trkpt>
      <trkpt lat="42.87211" lon="-0.55887">
        <ele>800.7</ele>
        <time>2021-01-08T13:56:24.000Z</time>
      </trkpt>
      <trkpt lat="42.87221" lon="-0.55894">
        <ele>799.7</ele>
        <time>2021-01-08T13:56:28.000Z</time>
      </trkpt>
      <trkpt lat="42.87232" lon="-0.55892">
        <ele>798.9</ele>
        <time>2021-01-08T13:56:30.000Z</time>
      </trkpt>
      <trkpt lat="42.87241" lon="-0.55899">
        <ele>798.2</ele>
        <time>2021-01-08T13:56:33.000Z</time>
      </trkpt>
      <trkpt lat="42.87251" lon="-0.55902">
        <ele>796.6</ele>
        <time>2021-01-08T13:56:36.000Z</time>
      </trkpt>
      <trkpt lat="42.8726" lon="-0.55906">
        <ele>794.4</ele>
        <time>2021-01-08T13:56:39.000Z</time>
      </trkpt>
      <trkpt lat="42.8727" lon="-0.5591">
        <ele>792.9</ele>
        <time>2021-01-08T13:56:42.000Z</time>
      </trkpt>
      <trkpt lat="42.87282" lon="-0.5591">
        <ele>790.5</ele>
        <time>2021-01-08T13:56:45.000Z</time>
      </trkpt>
      <trkpt lat="42.87293" lon="-0.55911">
        <ele>788.6</ele>
        <time>2021-01-08T13:56:48.000Z</time>
      </trkpt>
      <trkpt lat="42.87305" lon="-0.55914">
        <ele>785.8</ele>
        <time>2021-01-08T13:56:52.000Z</time>
      </trkpt>
      <trkpt lat="42.87315" lon="-0.55919">
        <ele>783</ele>
        <time>2021-01-08T13:56:55.000Z</time>
      </trkpt>
      <trkpt lat="42.87325" lon="-0.5592">
        <ele>780.2</ele>
        <time>2021-01-08T13:56:58.000Z</time>
      </trkpt>
      <trkpt lat="42.87333" lon="-0.55928">
        <ele>778.3</ele>
        <time>2021-01-08T13:57:00.000Z</time>
      </trkpt>
      <trkpt lat="42.87343" lon="-0.55929">
        <ele>775.5</ele>
        <time>2021-01-08T13:57:03.000Z</time>
      </trkpt>
      <trkpt lat="42.87354" lon="-0.55932">
        <ele>771.4</ele>
        <time>2021-01-08T13:57:21.000Z</time>
      </trkpt>
      <trkpt lat="42.87363" lon="-0.55928">
        <ele>770.6</ele>
        <time>2021-01-08T13:57:24.000Z</time>
      </trkpt>
      <trkpt lat="42.87374" lon="-0.55928">
        <ele>768.4</ele>
        <time>2021-01-08T13:57:28.000Z</time>
      </trkpt>
      <trkpt lat="42.8738" lon="-0.55942">
        <ele>767.3</ele>
        <time>2021-01-08T13:57:31.000Z</time>
      </trkpt>
      <trkpt lat="42.87383" lon="-0.55955">
        <ele>766.2</ele>
        <time>2021-01-08T13:57:34.000Z</time>
      </trkpt>
      <trkpt lat="42.87382" lon="-0.55968">
        <ele>765.3</ele>
        <time>2021-01-08T13:57:37.000Z</time>
      </trkpt>
      <trkpt lat="42.87381" lon="-0.55982">
        <ele>765.4</ele>
        <time>2021-01-08T13:57:41.000Z</time>
      </trkpt>
      <trkpt lat="42.8738" lon="-0.55996">
        <ele>764.6</ele>
        <time>2021-01-08T13:57:46.000Z</time>
      </trkpt>
      <trkpt lat="42.87378" lon="-0.56009">
        <ele>764.8</ele>
        <time>2021-01-08T13:57:59.000Z</time>
      </trkpt>
      <trkpt lat="42.87385" lon="-0.56018">
        <ele>762.5</ele>
        <time>2021-01-08T13:58:07.000Z</time>
      </trkpt>
      <trkpt lat="42.87389" lon="-0.5603">
        <ele>760.4</ele>
        <time>2021-01-08T13:58:14.000Z</time>
      </trkpt>
      <trkpt lat="42.87391" lon="-0.56042">
        <ele>760.2</ele>
        <time>2021-01-08T13:58:22.000Z</time>
      </trkpt>
      <trkpt lat="42.87393" lon="-0.56055">
        <ele>761.1</ele>
        <time>2021-01-08T13:58:44.000Z</time>
      </trkpt>
      <trkpt lat="42.87418" lon="-0.56049">
        <ele>760</ele>
        <time>2021-01-08T14:02:12.000Z</time>
      </trkpt>
      <trkpt lat="42.87578" lon="-0.56183">
        <ele>753</ele>
        <time>2021-01-08T14:05:04.000Z</time>
      </trkpt>
      <trkpt lat="42.87587" lon="-0.56188">
        <ele>753</ele>
        <time>2021-01-08T14:05:11.000Z</time>
      </trkpt>
      <trkpt lat="42.87589" lon="-0.56189">
        <ele>741.2</ele>
        <time>2021-01-08T14:11:47.000Z</time>
      </trkpt>
    </trkseg>
  </trk>
</gpx>